UA121 / N653UA 7700 Squawk Report (19th of October, 2017)

Aircraft B763 Reg No. N653UA Age 25 years old
Model 767 Jet engines 2 First flight 13-10-92
Registered 27-10-92 Rollout N/A Delivered 27-10-92
Construction No. 25391 Line No. 0460 Series 322(ER)
ADSHEX A899A2 Airline name United Airlines Owner N/A
Airfield based Chicago O`Hare~IL~N First tracked 2011-04-01 17:04:04

Flight history for N653UA

Time Lat Lon Altitude Heading Speed Vertical Rate
2017-10-19 11:44:16 GMT 41.29483 2.08175 0 157 0 0
2017-10-19 11:44:10 GMT 41.29483 2.08175 0 157 0 0
2017-10-19 11:44:01 GMT 41.29483 2.08175 0 157 0 0
2017-10-19 11:43:51 GMT 41.29483 2.08176 0 157 0 0
2017-10-19 11:43:20 GMT 41.29470 2.08232 0 157 3 0
2017-10-19 11:42:49 GMT 41.29465 2.08255 0 157 2 0
2017-10-19 11:42:17 GMT 41.29453 2.08295 0 157 5 0
2017-10-19 11:42:07 GMT 41.29466 2.08314 0 157 6 0
2017-10-19 11:41:59 GMT 41.29486 2.08310 0 157 6 0
2017-10-19 11:41:56 GMT 41.29491 2.08307 0 157 6 0
2017-10-19 11:41:47 GMT 41.29509 2.08296 0 157 5 0
2017-10-19 11:41:45 GMT 41.29510 2.08295 0 157 5 0
2017-10-19 11:41:38 GMT 41.29523 2.08287 0 157 7 0
2017-10-19 11:41:35 GMT 41.29530 2.08283 0 157 8 0
2017-10-19 11:41:28 GMT 41.29552 2.08269 0 157 11 0
2017-10-19 11:41:26 GMT 41.29562 2.08264 0 154 11 0
2017-10-19 11:41:24 GMT 41.29564 2.08263 0 154 11 0
2017-10-19 11:41:17 GMT 41.29595 2.08244 0 154 11 0
2017-10-19 11:41:14 GMT 41.29607 2.08236 0 143 11 0
2017-10-19 11:41:05 GMT 41.29630 2.08195 0 87 9 0
2017-10-19 11:41:03 GMT 41.29630 2.08191 0 84 9 0
2017-10-19 11:40:56 GMT 41.29626 2.08157 0 67 10 0
2017-10-19 11:40:52 GMT 41.29619 2.08136 0 64 11 0
2017-10-19 11:40:44 GMT 41.29599 2.08083 0 64 12 0
2017-10-19 11:40:36 GMT 41.29581 2.08029 0 67 11 0
2017-10-19 11:40:33 GMT 41.29577 2.08016 0 67 11 0
2017-10-19 11:40:23 GMT 41.29561 2.07965 0 64 9 0
2017-10-19 11:39:46 GMT 41.29528 2.07812 0 213 7 0
2017-10-19 11:39:41 GMT 41.29539 2.07801 0 213 7 0
2017-10-19 11:39:32 GMT 41.29566 2.07806 0 213 6 0
2017-10-19 11:39:28 GMT 41.29573 2.07811 0 213 9 0
2017-10-19 11:39:21 GMT 41.29603 2.07840 0 216 17 0
2017-10-19 11:39:20 GMT 41.29609 2.07846 0 216 18 0
2017-10-19 11:39:12 GMT 41.29663 2.07899 0 222 24 0
2017-10-19 11:39:10 GMT 41.29677 2.07916 0 225 26 0
2017-10-19 11:39:09 GMT 41.29685 2.07925 0 225 27 0
2017-10-19 11:39:00 GMT 41.29764 2.08041 0 236 32 0
2017-10-19 11:38:57 GMT 41.29785 2.08082 0 244 37 0
2017-10-19 11:38:53 GMT 41.29828 2.08202 0 247 58 0
2017-10-19 11:38:49 GMT 41.29853 2.08278 0 244 66 0
2017-10-19 11:38:48 GMT 41.29870 2.08327 0 244 70 0
2017-10-19 11:38:42 GMT 41.29960 2.08586 0 244 100 0
2017-10-19 11:38:39 GMT 41.30002 2.08711 0 244 110 0
2017-10-19 11:38:38 GMT 41.30019 2.08762 0 244 115 0
2017-10-19 11:38:31 GMT 41.30182 2.09241 0 244 140 0
2017-10-19 11:38:28 GMT 41.30241 2.09424 100 246 140 0
2017-10-19 11:38:22 GMT 41.30438 2.09998 125 246 146 -384
2017-10-19 11:38:19 GMT 41.30521 2.10229 150 247 148 -640
2017-10-19 11:38:11 GMT 41.30722 2.10834 250 246 151 -832
2017-10-19 11:38:07 GMT 41.30832 2.11151 300 246 153 -768
2017-10-19 11:38:00 GMT 41.31036 2.11749 375 247 157 -768
2017-10-19 11:37:57 GMT 41.31139 2.12042 425 246 158 -896
2017-10-19 11:37:57 GMT 41.31139 2.12042 425 246 158 -896
2017-10-19 11:37:51 GMT 41.31343 2.12654 550 247 158 -960
2017-10-19 11:37:48 GMT 41.31436 2.12933 600 247 159 -896
2017-10-19 11:37:48 GMT 41.31436 2.12933 600 247 159 -896
2017-10-19 11:37:40 GMT 41.31651 2.13574 700 246 158 -768
2017-10-19 11:37:37 GMT 41.31752 2.13879 750 246 159 -832
2017-10-19 11:37:30 GMT 41.31963 2.14502 825 247 159 -640
2017-10-19 11:37:27 GMT 41.32063 2.14807 875 247 160 -832
2017-10-19 11:37:20 GMT 41.32275 2.15444 975 246 161 -896
2017-10-19 11:37:17 GMT 41.32370 2.15729 1,000 246 161 -960
2017-10-19 11:37:15 GMT 41.32402 2.15820 1,025 246 161 -1088
2017-10-19 11:37:09 GMT 41.32582 2.16350 1,150 246 160 -1152
2017-10-19 11:37:06 GMT 41.32700 2.16699 1,225 246 158 -896
2017-10-19 11:36:59 GMT 41.32896 2.17291 1,325 248 157 -1024
2017-10-19 11:36:55 GMT 41.33001 2.17617 1,400 247 159 -896
2017-10-19 11:36:49 GMT 41.33199 2.18225 1,475 246 166 -832
2017-10-19 11:36:45 GMT 41.33336 2.18628 1,550 245 171 -704
2017-10-19 11:36:38 GMT 41.33532 2.19184 1,600 245 175 -704
2017-10-19 11:36:34 GMT 41.33688 2.19623 1,675 245 178 -704
2017-10-19 11:36:31 GMT 41.33815 2.19970 1,700 245 178 -576
2017-10-19 11:36:28 GMT 41.33895 2.20188 1,725 245 178 -576
2017-10-19 11:36:24 GMT 41.34067 2.20657 1,775 245 173 -832
2017-10-19 11:36:21 GMT 41.34169 2.20935 1,825 245 171 -1088
2017-10-19 11:36:18 GMT 41.34253 2.21175 1,850 245 171 -1024
2017-10-19 11:36:17 GMT 41.34270 2.21222 1,875 245 171 -960
2017-10-19 11:36:15 GMT 41.34370 2.21484 1,925 245 173 -896
2017-10-19 11:36:13 GMT 41.34430 2.21655 1,950 245 174 -896
2017-10-19 11:36:09 GMT 41.34598 2.22111 2,000 245 175 -832
2017-10-19 11:36:07 GMT 41.34616 2.22167 2,025 246 176 -832
2017-10-19 11:36:03 GMT 41.34801 2.22693 2,100 247 177 -896
2017-10-19 11:35:56 GMT 41.34975 2.23247 2,200 250 178 -832
2017-10-19 11:35:54 GMT 41.35062 2.23541 2,225 250 180 -960
2017-10-19 11:35:52 GMT 41.35110 2.23722 2,275 250 180 -960
2017-10-19 11:35:48 GMT 41.35222 2.24127 2,325 250 181 -832
2017-10-19 11:35:46 GMT 41.35272 2.24302 2,350 249 181 -640
2017-10-19 11:35:44 GMT 41.35375 2.24652 2,375 247 180 -320
2017-10-19 11:35:42 GMT 41.35437 2.24847 2,400 246 181 -128
2017-10-19 11:35:37 GMT 41.35616 2.25354 2,400 242 183 -64
2017-10-19 11:35:36 GMT 41.35670 2.25488 2,400 241 183 -64
2017-10-19 11:35:33 GMT 41.35744 2.25665 2,400 239 185 -64
2017-10-19 11:35:31 GMT 41.35836 2.25869 2,375 237 187 0
2017-10-19 11:35:28 GMT 41.36031 2.26250 2,375 224 203 -384
2017-10-19 11:35:26 GMT 41.36064 2.26306 2,375 231 194 -192
2017-10-19 11:35:23 GMT 41.36288 2.26666 2,375 227 200 -256
2017-10-19 11:35:20 GMT 41.36404 2.26837 2,375 224 203 -384
2017-10-19 11:35:15 GMT 41.36755 2.27264 2,375 218 206 -832
2017-10-19 11:35:15 GMT 41.36755 2.27264 2,375 218 206 -832
2017-10-19 11:35:12 GMT 41.37012 2.27527 2,425 217 206 -832
2017-10-19 11:35:10 GMT 41.37144 2.27660 2,450 217 207 -1024
2017-10-19 11:35:06 GMT 41.37512 2.28023 2,525 217 206 -1344
2017-10-19 11:35:04 GMT 41.37586 2.28097 2,550 217 206 -1344
2017-10-19 11:35:02 GMT 41.37786 2.28297 2,625 217 205 -1408
2017-10-19 11:35:00 GMT 41.37950 2.28455 2,675 217 205 -1344
2017-10-19 11:34:55 GMT 41.38284 2.28790 2,775 218 204 -1280
2017-10-19 11:34:51 GMT 41.38573 2.29090 2,850 219 203 -1216
2017-10-19 11:34:49 GMT 41.38755 2.29276 2,900 219 203 -1152
2017-10-19 11:34:45 GMT 41.39062 2.29602 3,000 219 202 -1216
2017-10-19 11:34:44 GMT 41.39090 2.29633 3,000 219 202 -1216
2017-10-19 11:34:39 GMT 41.39511 2.30076 3,100 219 204 -768
2017-10-19 11:34:34 GMT 41.39822 2.30401 3,175 219 204 -640
2017-10-19 11:34:34 GMT 41.39822 2.30401 3,175 219 204 -640
2017-10-19 11:34:30 GMT 41.40170 2.30777 3,225 220 203 -704
2017-10-19 11:34:28 GMT 41.40321 2.30938 3,250 220 203 -320
2017-10-19 11:34:24 GMT 41.40582 2.31225 3,275 219 204 -256
2017-10-19 11:34:24 GMT 41.40582 2.31225 3,275 219 204 -256
2017-10-19 11:34:20 GMT 41.40887 2.31550 3,275 217 205 -128
2017-10-19 11:34:18 GMT 41.41068 2.31729 3,275 212 205 -384
2017-10-19 11:34:14 GMT 41.41383 2.31986 3,300 204 203 -256
2017-10-19 11:34:13 GMT 41.41422 2.32016 3,300 204 203 -256
2017-10-19 11:34:09 GMT 41.41759 2.32199 3,275 194 200 -192
2017-10-19 11:34:07 GMT 41.41962 2.32271 3,275 189 199 -192
2017-10-19 11:34:03 GMT 41.42269 2.32322 3,275 177 197 -192
2017-10-19 11:34:03 GMT 41.42317 2.32323 3,275 177 197 -192
2017-10-19 11:33:57 GMT 41.42898 2.32227 3,275 159 192 -64
2017-10-19 11:33:53 GMT 41.43214 2.32067 3,275 150 191 0
2017-10-19 11:33:53 GMT 41.43182 2.32086 3,275 150 191 0
2017-10-19 11:33:49 GMT 41.43503 2.31837 3,275 141 189 128
2017-10-19 11:33:46 GMT 41.43731 2.31582 3,250 135 189 128
2017-10-19 11:33:43 GMT 41.43910 2.31343 3,250 133 190 0
2017-10-19 11:33:43 GMT 41.43910 2.31343 3,250 133 190 0
2017-10-19 11:33:39 GMT 41.44190 2.30950 3,250 132 192 -320
2017-10-19 11:33:35 GMT 41.44359 2.30707 3,275 133 194 -512
2017-10-19 11:33:32 GMT 41.44542 2.30444 3,300 133 196 -448
2017-10-19 11:33:31 GMT 41.44592 2.30376 3,300 133 197 -384
2017-10-19 11:33:28 GMT 41.44803 2.30076 3,325 133 200 -256
2017-10-19 11:33:25 GMT 41.45004 2.29789 3,325 133 202 -384
2017-10-19 11:33:22 GMT 41.45174 2.29552 3,350 133 204 -512
2017-10-19 11:33:22 GMT 41.45174 2.29552 3,350 133 204 -512
2017-10-19 11:33:18 GMT 41.45468 2.29142 3,375 133 206 -640
2017-10-19 11:33:14 GMT 41.45691 2.28829 3,425 134 208 -704
2017-10-19 11:33:12 GMT 41.45874 2.28578 3,450 133 209 -704
2017-10-19 11:33:11 GMT 41.45929 2.28503 3,450 133 209 -704
2017-10-19 11:33:07 GMT 41.46181 2.28154 3,500 133 211 -576
2017-10-19 11:33:04 GMT 41.46410 2.27829 3,550 131 212 -320
2017-10-19 11:33:01 GMT 41.46547 2.27628 3,550 130 214 -128
2017-10-19 11:33:01 GMT 41.46575 2.27589 3,550 130 214 -128
2017-10-19 11:32:57 GMT 41.46859 2.27142 3,575 127 217 64
2017-10-19 11:32:54 GMT 41.47055 2.26797 3,550 122 221 64
2017-10-19 11:32:51 GMT 41.47223 2.26452 3,575 118 222 64
2017-10-19 11:32:47 GMT 41.47435 2.25900 3,575 112 228 0
2017-10-19 11:32:43 GMT 41.47577 2.25463 3,575 111 232 0
2017-10-19 11:32:41 GMT 41.47641 2.25251 3,575 111 233 -64
2017-10-19 11:32:39 GMT 41.47739 2.24913 3,575 111 236 0
2017-10-19 11:32:36 GMT 41.47837 2.24594 3,575 111 238 128
2017-10-19 11:32:33 GMT 41.47998 2.24059 3,550 111 243 0
2017-10-19 11:32:30 GMT 41.48065 2.23821 3,550 111 245 -64
2017-10-19 11:32:25 GMT 41.48270 2.23112 3,550 111 249 -128
2017-10-19 11:32:21 GMT 41.48502 2.22323 3,575 111 254 -256
2017-10-19 11:32:21 GMT 41.48502 2.22323 3,575 111 254 -256
2017-10-19 11:32:16 GMT 41.48703 2.21624 3,600 111 254 -448
2017-10-19 11:32:12 GMT 41.48877 2.21037 3,625 111 253 -960
2017-10-19 11:32:10 GMT 41.48946 2.20806 3,650 111 254 -1216
2017-10-19 11:32:09 GMT 41.48968 2.20736 3,650 111 254 -1216
2017-10-19 11:32:05 GMT 41.49133 2.20164 3,725 111 254 -1344
2017-10-19 11:32:00 GMT 41.49368 2.19362 3,850 111 254 -1344
2017-10-19 11:32:00 GMT 41.49368 2.19362 3,850 111 254 -1344
2017-10-19 11:31:55 GMT 41.49587 2.18622 3,975 111 254 -1280
2017-10-19 11:31:52 GMT 41.49708 2.18200 4,025 111 254 -1280
2017-10-19 11:31:50 GMT 41.49848 2.17727 4,100 111 254 -1280
2017-10-19 11:31:49 GMT 41.49848 2.17727 4,100 111 254 -1280
2017-10-19 11:31:45 GMT 41.50017 2.17161 4,175 111 254 -1280
2017-10-19 11:31:43 GMT 41.50104 2.16852 4,225 111 254 -1280
2017-10-19 11:31:41 GMT 41.50154 2.16693 4,250 111 254 -1280
2017-10-19 11:31:39 GMT 41.50267 2.16296 4,325 111 255 -1280
2017-10-19 11:31:33 GMT 41.50565 2.15274 4,475 110 254 -1280
2017-10-19 11:31:31 GMT 41.50579 2.15217 4,475 110 255 -1280
2017-10-19 11:31:28 GMT 41.50705 2.14776 4,525 110 255 -1216
2017-10-19 11:31:24 GMT 41.50919 2.14021 4,650 110 256 -1152
2017-10-19 11:31:21 GMT 41.51007 2.13710 4,675 110 256 -1152
2017-10-19 11:31:19 GMT 41.51133 2.13269 4,750 110 256 -1152
2017-10-19 11:31:19 GMT 41.51133 2.13269 4,750 110 256 -1152
2017-10-19 11:31:14 GMT 41.51317 2.12604 4,825 110 256 -1152
2017-10-19 11:31:11 GMT 41.51440 2.12155 4,875 110 257 -1152
2017-10-19 11:31:08 GMT 41.51564 2.11712 4,950 110 257 -1216
2017-10-19 11:31:07 GMT 41.51582 2.11649 4,950 110 257 -1216
2017-10-19 11:31:04 GMT 41.51747 2.11056 5,050 110 258 -1280
2017-10-19 11:31:01 GMT 41.51841 2.10714 5,075 110 258 -1280
2017-10-19 11:30:58 GMT 41.51994 2.10177 5,150 110 258 -1280
2017-10-19 11:30:57 GMT 41.51994 2.10177 5,150 110 258 -1280
2017-10-19 11:30:53 GMT 41.52168 2.09564 5,250 110 258 -1280
2017-10-19 11:30:50 GMT 41.52287 2.09130 5,300 111 259 -1280
2017-10-19 11:30:48 GMT 41.52394 2.08772 5,375 111 259 -1280
2017-10-19 11:30:40 GMT 41.52716 2.07674 5,500 111 260 -1216
2017-10-19 11:30:37 GMT 41.52888 2.07105 5,575 111 261 -1216
2017-10-19 11:30:30 GMT 41.53180 2.06100 5,725 111 260 -1216
2017-10-19 11:30:26 GMT 41.53340 2.05563 5,800 111 261 -1088
2017-10-19 11:30:20 GMT 41.53637 2.04556 5,925 111 262 -960
2017-10-19 11:30:16 GMT 41.53786 2.04039 5,975 111 263 -832
2017-10-19 11:30:12 GMT 41.53963 2.03432 6,050 111 263 -448
2017-10-19 11:30:11 GMT 41.54013 2.03266 6,050 110 264 -384
2017-10-19 11:30:09 GMT 41.54094 2.02979 6,075 110 264 -128
2017-10-19 11:30:06 GMT 41.54252 2.02429 6,075 110 264 0
2017-10-19 11:30:04 GMT 41.54336 2.02123 6,075 110 265 0
2017-10-19 11:30:00 GMT 41.54517 2.01484 6,075 110 264 0
2017-10-19 11:29:56 GMT 41.54713 2.00800 6,075 110 264 0
2017-10-19 11:29:49 GMT 41.54956 1.99945 6,075 111 263 0
2017-10-19 11:29:46 GMT 41.55127 1.99357 6,075 111 261 0
2017-10-19 11:29:39 GMT 41.55416 1.98361 6,075 110 259 -64
2017-10-19 11:29:35 GMT 41.55583 1.97779 6,100 110 259 -512
2017-10-19 11:29:32 GMT 41.55723 1.97288 6,125 110 258 -640
2017-10-19 11:29:29 GMT 41.55839 1.96849 6,175 109 259 -1216
2017-10-19 11:29:24 GMT 41.56018 1.96187 6,275 109 259 -1280
2017-10-19 11:29:19 GMT 41.56244 1.95359 6,400 109 259 -1216
2017-10-19 11:29:15 GMT 41.56440 1.94637 6,475 110 259 -1216
2017-10-19 11:29:08 GMT 41.56673 1.93778 6,600 109 260 -1280
2017-10-19 11:29:04 GMT 41.56860 1.93085 6,700 109 260 -1280
2017-10-19 11:28:59 GMT 41.57078 1.92286 6,825 110 261 -1152
2017-10-19 11:28:54 GMT 41.57291 1.91518 6,925 110 261 -1152
2017-10-19 11:28:48 GMT 41.57511 1.90715 7,025 110 261 -1088
2017-10-19 11:28:43 GMT 41.57729 1.89923 7,125 110 261 -1152
2017-10-19 11:28:38 GMT 41.57943 1.89137 7,225 109 261 -1088
2017-10-19 11:28:32 GMT 41.58179 1.88272 7,325 110 262 -1088
2017-10-19 11:28:28 GMT 41.58362 1.87604 7,400 110 262 -1088
2017-10-19 11:28:22 GMT 41.58604 1.86718 7,525 109 263 -1088
2017-10-19 11:28:17 GMT 41.58781 1.86059 7,600 110 264 -1152
2017-10-19 11:28:08 GMT 41.59210 1.84494 7,775 109 265 -1088
2017-10-19 11:27:56 GMT 41.59694 1.82691 8,000 109 266 -1088
2017-10-19 11:27:49 GMT 41.59959 1.81715 8,125 109 267 -1088
2017-10-19 11:27:47 GMT 41.60062 1.81338 8,150 110 268 -1088
2017-10-19 11:27:41 GMT 41.60371 1.80207 8,300 109 267 -1216
2017-10-19 11:27:36 GMT 41.60504 1.79708 8,375 109 267 -1216
2017-10-19 11:27:30 GMT 41.60797 1.78636 8,500 109 268 -1088
2017-10-19 11:27:26 GMT 41.60944 1.78091 8,575 109 268 -1088
2017-10-19 11:27:20 GMT 41.61235 1.77008 8,700 109 270 -1088
2017-10-19 11:27:16 GMT 41.61365 1.76541 8,750 109 270 -1088
2017-10-19 11:27:11 GMT 41.61607 1.75650 8,850 109 271 -1152
2017-10-19 11:27:08 GMT 41.61705 1.75283 8,900 109 270 -1152
2017-10-19 11:27:06 GMT 41.61798 1.74938 8,950 109 271 -1152
2017-10-19 11:26:56 GMT 41.62221 1.73347 9,125 109 271 -1216
2017-10-19 11:26:48 GMT 41.62533 1.72160 9,300 109 272 -1216
2017-10-19 11:26:46 GMT 41.62651 1.71730 9,350 109 272 -1216
2017-10-19 11:26:40 GMT 41.62938 1.70671 9,475 109 272 -1152
2017-10-19 11:26:35 GMT 41.63088 1.70135 9,550 109 272 -1216
2017-10-19 11:26:26 GMT 41.63530 1.68465 9,750 109 273 -1152
2017-10-19 11:26:15 GMT 41.63944 1.66890 9,950 109 273 -1280
2017-10-19 11:26:06 GMT 41.64381 1.65251 10,175 110 273 -1216
2017-10-19 11:26:04 GMT 41.64433 1.65076 10,200 110 273 -1216
2017-10-19 11:25:55 GMT 41.64830 1.63634 10,375 110 274 -1088
2017-10-19 11:25:44 GMT 41.65283 1.61973 10,575 109 275 -1088
2017-10-19 11:25:35 GMT 41.65704 1.60388 10,750 109 276 -1088
2017-10-19 11:25:27 GMT 41.66020 1.59214 10,875 109 278 -1088
2017-10-19 11:25:24 GMT 41.66155 1.58714 10,925 109 278 -1088
2017-10-19 11:25:14 GMT 41.66579 1.57111 11,125 109 278 -1280
2017-10-19 11:25:04 GMT 41.67040 1.55412 11,350 109 278 -1216
2017-10-19 11:24:54 GMT 41.67463 1.53828 11,550 109 279 -1280
2017-10-19 11:24:43 GMT 41.67934 1.52092 11,775 110 279 -1152
2017-10-19 11:24:35 GMT 41.68300 1.50762 11,900 109 280 -448
2017-10-19 11:24:25 GMT 41.68739 1.49146 11,925 109 282 128
2017-10-19 11:23:58 GMT 41.69934 1.44639 11,850 109 284 256
2017-10-19 11:23:42 GMT 41.70610 1.42049 11,800 109 291 -896
2017-10-19 11:23:32 GMT 41.71057 1.40357 11,975 109 286 -256
2017-10-19 11:23:01 GMT 41.72434 1.35169 12,000 109 281 -128
2017-10-19 11:22:48 GMT 41.73038 1.32916 12,000 109 276 0
2017-10-19 11:22:23 GMT 41.74065 1.29045 12,000 109 267 0
2017-10-19 11:20:56 GMT 41.77487 1.16118 12,000 110 252 -64
2017-10-19 11:19:30 GMT 41.80847 1.03371 12,000 119 254 -128
2017-10-19 11:19:23 GMT 41.81280 1.02422 12,000 128 253 -64
2017-10-19 11:19:09 GMT 41.82444 1.00966 12,000 146 256 0
2017-10-19 11:18:36 GMT 41.86313 1.00188 12,000 193 265 384
2017-10-19 11:18:30 GMT 41.86990 1.00537 12,000 209 271 384
2017-10-19 11:18:20 GMT 41.88025 1.01461 12,000 226 278 384
2017-10-19 11:18:10 GMT 41.88910 1.02895 12,000 241 282 512
2017-10-19 11:17:51 GMT 41.89613 1.06076 11,975 275 295 448
2017-10-19 11:16:59 GMT 41.87551 1.15318 12,000 290 299 0
2017-10-19 11:16:53 GMT 41.87267 1.16366 12,000 292 299 128
2017-10-19 11:16:43 GMT 41.86633 1.18072 12,000 309 300 64
2017-10-19 11:16:33 GMT 41.85614 1.19496 12,000 325 297 -64
2017-10-19 11:15:32 GMT 41.78780 1.17279 12,000 64 261 -384
2017-10-19 11:15:21 GMT 41.78357 1.15893 12,000 74 256 -128
2017-10-19 11:14:12 GMT 41.80344 1.05712 12,000 110 252 64
2017-10-19 11:13:49 GMT 41.81428 1.02373 12,000 114 254 -192
2017-10-19 11:13:47 GMT 41.81575 1.02129 12,000 132 255 -64
2017-10-19 11:13:05 GMT 41.86189 1.00150 12,000 195 264 448
2017-10-19 11:12:56 GMT 41.87197 1.00665 12,000 214 270 576
2017-10-19 11:12:45 GMT 41.88314 1.01777 12,000 229 276 512
2017-10-19 11:12:35 GMT 41.89078 1.03153 12,000 244 282 640
2017-10-19 11:12:05 GMT 41.89334 1.08627 12,000 288 298 64
2017-10-19 11:12:03 GMT 41.89315 1.08713 12,000 288 298 64
2017-10-19 11:11:30 GMT 41.87865 1.14570 12,000 290 303 0
2017-10-19 11:11:28 GMT 41.87765 1.14941 12,000 290 303 0
2017-10-19 11:11:18 GMT 41.87248 1.16845 12,000 294 303 192
2017-10-19 11:11:08 GMT 41.86620 1.18365 12,000 310 301 0
2017-10-19 11:10:56 GMT 41.85448 1.19832 12,000 331 296 -128
2017-10-19 11:10:02 GMT 41.79102 1.18046 12,000 59 263 -512
2017-10-19 11:09:55 GMT 41.78700 1.17098 12,000 68 256 -192
2017-10-19 11:09:47 GMT 41.78325 1.15787 12,000 81 253 -320
2017-10-19 11:09:35 GMT 41.78119 1.13971 11,975 110 251 0
2017-10-19 11:08:23 GMT 41.80934 1.03484 12,000 122 256 -128
2017-10-19 11:08:13 GMT 41.81566 1.02148 12,000 132 256 -64
2017-10-19 11:07:55 GMT 41.83212 1.00480 12,000 149 257 64
2017-10-19 11:07:52 GMT 41.83543 1.00301 12,000 162 258 192
2017-10-19 11:07:37 GMT 41.85349 0.99937 12,000 185 261 320
2017-10-19 11:07:31 GMT 41.86134 1.00088 12,000 199 265 512
2017-10-19 11:07:18 GMT 41.87558 1.00881 12,000 215 271 512
2017-10-19 11:07:10 GMT 41.88377 1.01761 12,000 229 277 512
2017-10-19 11:06:59 GMT 41.89215 1.03315 12,000 246 284 576
2017-10-19 11:06:29 GMT 41.89467 1.08515 11,975 288 297 64
2017-10-19 11:05:58 GMT 41.88142 1.14053 12,000 290 301 -128
2017-10-19 11:05:52 GMT 41.87860 1.15088 12,025 291 298 128
2017-10-19 11:05:22 GMT 41.85558 1.19876 12,000 329 298 -128
2017-10-19 11:04:34 GMT 41.79883 1.19266 11,975 46 264 -640
2017-10-19 11:04:25 GMT 41.79111 1.18071 12,000 58 261 -576
2017-10-19 11:04:18 GMT 41.78701 1.17081 12,000 76 251 -128
2017-10-19 11:02:36 GMT 41.81488 1.02148 12,000 129 256 -64
2017-10-19 11:01:59 GMT 41.85367 0.99803 12,000 191 263 0
2017-10-19 11:01:55 GMT 41.85851 0.99880 12,000 191 263 0
2017-10-19 11:01:46 GMT 41.86936 1.00327 11,975 206 267 512
2017-10-19 11:01:34 GMT 41.88165 1.01458 12,000 226 275 512
2017-10-19 11:01:24 GMT 41.88927 1.02760 12,000 243 283 576
2017-10-19 11:00:54 GMT 41.89316 1.08009 11,975 288 298 0
2017-10-19 11:00:46 GMT 41.88950 1.09564 11,975 293 300 192
2017-10-19 11:00:06 GMT 41.87183 1.16549 12,000 293 300 192
2017-10-19 11:00:04 GMT 41.87071 1.16915 12,000 295 301 192
2017-10-19 10:59:54 GMT 41.86423 1.18403 12,000 312 299 0
2017-10-19 10:58:40 GMT 41.78549 1.16649 12,000 73 256 -128
2017-10-19 10:58:33 GMT 41.78270 1.15569 12,000 79 256 -320
2017-10-19 10:57:39 GMT 41.79739 1.07379 12,000 114 255 -64
2017-10-19 10:57:16 GMT 41.80737 1.04127 12,000 114 251 -128
2017-10-19 10:56:49 GMT 41.82518 1.00819 12,000 148 252 0
2017-10-19 10:56:40 GMT 41.83482 1.00148 12,000 160 254 128
2017-10-19 10:56:11 GMT 41.86955 1.00416 11,975 209 267 448
2017-10-19 10:56:01 GMT 41.88020 1.01399 12,000 228 274 448
2017-10-19 10:55:50 GMT 41.88873 1.02895 12,000 245 281 576
2017-10-19 10:55:29 GMT 41.89430 1.06418 11,975 292 300 128
2017-10-19 10:55:27 GMT 41.89398 1.06699 11,975 282 296 320
2017-10-19 10:55:18 GMT 41.89078 1.08309 11,975 288 297 0
2017-10-19 10:54:49 GMT 41.87833 1.13446 11,975 289 299 -64
2017-10-19 10:52:11 GMT 41.79684 1.07859 12,000 109 253 0
2017-10-19 10:52:03 GMT 41.80005 1.06663 12,000 109 252 64
2017-10-19 10:51:49 GMT 41.80535 1.04638 11,975 109 251 0
2017-10-19 10:50:06 GMT 41.84546 0.89339 11,975 109 253 0
2017-10-19 10:48:23 GMT 41.88583 0.73827 12,000 109 262 0
2017-10-19 10:48:20 GMT 41.88702 0.73371 11,975 109 262 0
2017-10-19 10:47:23 GMT 41.90944 0.64743 11,975 108 259 -64
2017-10-19 10:46:47 GMT 41.92346 0.59270 12,000 109 262 -64
2017-10-19 10:45:19 GMT 41.95853 0.45556 14,375 115 264 -3136
2017-10-19 10:45:10 GMT 41.96356 0.44239 14,825 122 268 -1728
2017-10-19 10:45:04 GMT 41.96852 0.43262 14,975 126 272 -704
2017-10-19 10:45:00 GMT 41.97075 0.42885 15,000 130 276 -64
2017-10-19 10:44:50 GMT 41.97954 0.41673 15,000 140 292 0
2017-10-19 10:44:44 GMT 41.98584 0.41007 15,000 146 303 64
2017-10-19 10:44:39 GMT 41.99181 0.40481 15,000 150 313 128
2017-10-19 10:44:35 GMT 41.99831 0.40004 14,975 155 325 256
2017-10-19 10:44:29 GMT 42.00516 0.39589 14,975 159 334 192
2017-10-19 10:44:19 GMT 42.02000 0.39008 14,950 172 357 -448
2017-10-19 10:44:08 GMT 42.03831 0.38920 15,000 188 370 0
2017-10-19 10:43:58 GMT 42.05534 0.39232 15,000 189 372 0
2017-10-19 10:43:48 GMT 42.07321 0.39596 15,000 189 373 0
2017-10-19 10:43:37 GMT 42.09267 0.40004 15,000 189 374 -64
2017-10-19 10:43:22 GMT 42.11739 0.40522 15,000 189 375 0
2017-10-19 10:43:17 GMT 42.12579 0.40699 15,000 189 376 0
2017-10-19 10:43:11 GMT 42.13577 0.40899 15,000 189 376 0
2017-10-19 10:43:09 GMT 42.14179 0.41026 15,000 189 375 0
2017-10-19 10:42:59 GMT 42.15659 0.41333 14,975 189 375 64
2017-10-19 10:42:51 GMT 42.17047 0.41617 14,975 189 375 -64
2017-10-19 10:42:41 GMT 42.18732 0.41973 15,000 189 376 -64
2017-10-19 10:42:33 GMT 42.20178 0.42272 15,000 190 375 0
2017-10-19 10:42:23 GMT 42.21943 0.42649 15,000 189 374 64
2017-10-19 10:42:12 GMT 42.23722 0.43013 15,000 189 372 0
2017-10-19 10:42:03 GMT 42.25393 0.43364 15,000 189 371 0
2017-10-19 10:41:47 GMT 42.28052 0.43914 15,000 189 370 -64
2017-10-19 10:41:42 GMT 42.28931 0.44095 15,000 189 369 0
2017-10-19 10:41:31 GMT 42.30700 0.44463 15,000 189 367 0
2017-10-19 10:41:20 GMT 42.32613 0.44859 15,000 189 366 0
2017-10-19 10:41:09 GMT 42.34438 0.45250 14,975 189 366 0
2017-10-19 10:41:01 GMT 42.35695 0.45517 14,975 190 367 0
2017-10-19 10:40:57 GMT 42.36484 0.45687 14,975 190 368 0
2017-10-19 10:40:47 GMT 42.38153 0.46040 15,000 189 371 0
2017-10-19 10:40:37 GMT 42.39955 0.46424 15,000 189 373 0
2017-10-19 10:40:28 GMT 42.41318 0.46705 15,000 189 373 0
2017-10-19 10:40:21 GMT 42.42482 0.46941 15,000 189 373 0
2017-10-19 10:40:14 GMT 42.43679 0.47184 15,000 189 372 -128
2017-10-19 10:40:05 GMT 42.45291 0.47516 15,025 189 369 -640
2017-10-19 10:39:57 GMT 42.46691 0.47810 15,150 189 367 -1664
2017-10-19 10:39:54 GMT 42.47113 0.47897 15,225 189 367 -1664
2017-10-19 10:39:46 GMT 42.48436 0.48174 15,425 189 365 -1280
2017-10-19 10:39:44 GMT 42.48788 0.48252 15,475 189 366 -1408
2017-10-19 10:39:35 GMT 42.50326 0.48577 15,675 189 366 -704
2017-10-19 10:39:33 GMT 42.50661 0.48646 15,700 189 366 -576
2017-10-19 10:39:23 GMT 42.52323 0.49004 15,725 189 371 512
2017-10-19 10:39:12 GMT 42.54158 0.49388 15,775 189 378 -1536
2017-10-19 10:39:03 GMT 42.55945 0.49771 15,975 189 381 -384
2017-10-19 10:38:52 GMT 42.57706 0.50144 16,000 189 380 0
2017-10-19 10:38:41 GMT 42.59534 0.50531 16,000 189 379 0
2017-10-19 10:38:31 GMT 42.61336 0.50901 16,000 189 377 64
2017-10-19 10:38:19 GMT 42.63408 0.51336 16,000 190 376 0
2017-10-19 10:38:10 GMT 42.64975 0.51673 16,000 189 377 0
2017-10-19 10:37:58 GMT 42.66960 0.52089 16,000 189 377 0
2017-10-19 10:37:47 GMT 42.68891 0.52498 16,000 189 377 64
2017-10-19 10:37:38 GMT 42.70569 0.52853 15,975 189 378 0
2017-10-19 10:37:28 GMT 42.72166 0.53190 16,000 189 379 -64
2017-10-19 10:37:18 GMT 42.73914 0.53558 16,000 189 378 64
2017-10-19 10:37:07 GMT 42.75926 0.53986 16,000 190 378 0
2017-10-19 10:36:57 GMT 42.77531 0.54332 16,000 189 378 64
2017-10-19 10:36:44 GMT 42.79803 0.54817 15,975 189 379 0
2017-10-19 10:36:34 GMT 42.81560 0.55193 15,975 189 383 0
2017-10-19 10:36:24 GMT 42.83377 0.55577 16,000 189 383 0
2017-10-19 10:36:21 GMT 42.84030 0.55716 16,000 189 384 0
2017-10-19 10:36:14 GMT 42.85050 0.55932 16,000 189 385 0
2017-10-19 10:36:05 GMT 42.86691 0.56279 16,000 189 384 0
2017-10-19 10:36:01 GMT 42.87447 0.56442 16,000 189 385 0
2017-10-19 10:35:54 GMT 42.88574 0.56678 16,000 189 384 0
2017-10-19 10:35:44 GMT 42.90449 0.57078 16,000 189 383 -64
2017-10-19 10:35:35 GMT 42.92182 0.57443 16,000 189 381 64
2017-10-19 10:35:24 GMT 42.93906 0.57806 16,000 189 380 128
2017-10-19 10:35:14 GMT 42.95851 0.58221 15,975 189 379 0
2017-10-19 10:35:02 GMT 42.97623 0.58598 16,000 189 380 -128
2017-10-19 10:34:53 GMT 42.99294 0.58949 16,000 189 381 0
2017-10-19 10:34:42 GMT 43.01216 0.59358 16,000 189 382 0
2017-10-19 10:34:31 GMT 43.03019 0.59745 16,000 190 384 -64
2017-10-19 10:34:22 GMT 43.04918 0.60157 16,000 190 385 0
2017-10-19 10:34:11 GMT 43.06663 0.60533 16,000 189 385 64
2017-10-19 10:34:00 GMT 43.08600 0.60923 16,000 190 383 0
2017-10-19 10:34:00 GMT 43.08600 0.60923 16,000 189 384 0
2017-10-19 10:33:50 GMT 43.10300 0.61295 16,000 190 383 0
2017-10-19 10:33:40 GMT 43.12106 0.61690 15,975 189 383 0
2017-10-19 10:33:33 GMT 43.13301 0.61945 15,975 189 383 0
2017-10-19 10:33:29 GMT 43.13969 0.62086 15,975 189 384 0
2017-10-19 10:33:19 GMT 43.15783 0.62478 16,000 190 386 0
2017-10-19 10:33:08 GMT 43.17604 0.62871 16,000 190 387 0
2017-10-19 10:32:56 GMT 43.20029 0.63400 16,000 190 386 0
2017-10-19 10:32:59 GMT 43.19429 0.63270 16,000 190 386 0
2017-10-19 10:32:56 GMT 43.20029 0.63400 16,000 190 386 0
2017-10-19 10:32:47 GMT 43.21390 0.63702 16,000 190 386 0
2017-10-19 10:32:47 GMT 43.21390 0.63702 16,000 190 386 0
2017-10-19 10:32:37 GMT 43.23097 0.64080 16,000 190 384 0
2017-10-19 10:32:37 GMT 43.23097 0.64080 16,000 190 385 64
2017-10-19 10:32:27 GMT 43.24937 0.64494 15,975 190 384 64
2017-10-19 10:32:25 GMT 43.25308 0.64577 15,975 190 384 0
2017-10-19 10:32:17 GMT 43.26833 0.64928 15,975 190 384 0
2017-10-19 10:32:13 GMT 43.27584 0.65100 16,000 190 384 0
2017-10-19 10:32:05 GMT 43.28781 0.65375 15,975 190 385 0
2017-10-19 10:32:03 GMT 43.29218 0.65477 15,975 190 385 0
2017-10-19 10:31:56 GMT 43.30434 0.65741 16,000 189 386 -64
2017-10-19 10:31:52 GMT 43.31178 0.65905 16,000 189 386 -64
2017-10-19 10:31:45 GMT 43.32257 0.66116 16,000 189 386 0
2017-10-19 10:31:43 GMT 43.32683 0.66199 16,000 189 386 0
2017-10-19 10:31:35 GMT 43.34153 0.66493 16,000 189 386 64
2017-10-19 10:31:35 GMT 43.34153 0.66493 16,000 189 386 64
2017-10-19 10:31:25 GMT 43.35955 0.66873 16,000 186 385 0
2017-10-19 10:31:24 GMT 43.35955 0.66873 16,000 186 386 64
2017-10-19 10:31:14 GMT 43.37897 0.67042 16,000 178 385 0
2017-10-19 10:31:14 GMT 43.37807 0.67043 16,000 178 385 0
2017-10-19 10:31:03 GMT 43.39725 0.66853 16,000 171 384 64
2017-10-19 10:30:53 GMT 43.41466 0.66363 16,000 162 384 64
2017-10-19 10:30:42 GMT 43.43268 0.65447 16,000 153 383 0
2017-10-19 10:30:32 GMT 43.44893 0.64244 15,975 150 383 0
2017-10-19 10:30:32 GMT 43.44832 0.64296 15,975 150 383 0
2017-10-19 10:30:22 GMT 43.46420 0.63050 16,000 150 383 0
2017-10-19 10:30:22 GMT 43.46494 0.62995 16,000 150 383 0
2017-10-19 10:30:12 GMT 43.48007 0.61811 16,000 150 385 0
2017-10-19 10:30:11 GMT 43.48067 0.61759 16,000 150 385 64
2017-10-19 10:30:02 GMT 43.49661 0.60502 16,000 149 385 0
2017-10-19 10:30:02 GMT 43.49753 0.60431 16,000 149 385 0
2017-10-19 10:29:51 GMT 43.51247 0.59222 16,000 149 386 0
2017-10-19 10:29:41 GMT 43.52834 0.57946 16,000 149 386 0
2017-10-19 10:29:38 GMT 43.53281 0.57587 16,000 149 386 0
2017-10-19 10:29:30 GMT 43.54487 0.56619 16,000 149 387 0
2017-10-19 10:29:19 GMT 43.56116 0.55328 16,000 149 387 0
2017-10-19 10:29:10 GMT 43.57755 0.54005 16,000 149 388 0
2017-10-19 10:29:10 GMT 43.57676 0.54068 16,000 149 388 0
2017-10-19 10:28:59 GMT 43.59291 0.52774 16,000 149 388 0
2017-10-19 10:28:59 GMT 43.59291 0.52774 16,000 149 388 0
2017-10-19 10:28:48 GMT 43.60890 0.51495 16,000 149 388 0
2017-10-19 10:28:44 GMT 43.61591 0.50936 16,000 149 388 0
2017-10-19 10:28:39 GMT 43.62566 0.50154 16,000 149 388 0
2017-10-19 10:28:28 GMT 43.64117 0.48896 16,000 149 387 -64
2017-10-19 10:28:21 GMT 43.65180 0.48032 16,025 149 387 -64
2017-10-19 10:28:17 GMT 43.65739 0.47581 16,025 149 386 -192
2017-10-19 10:28:15 GMT 43.66090 0.47299 16,025 149 384 -384
2017-10-19 10:28:07 GMT 43.67335 0.46293 16,075 149 382 -640
2017-10-19 10:28:02 GMT 43.68150 0.45644 16,150 150 382 -1024
2017-10-19 10:27:57 GMT 43.68960 0.44998 16,250 150 382 -1792
2017-10-19 10:27:47 GMT 43.70464 0.43808 16,575 150 383 -2368
2017-10-19 10:27:35 GMT 43.72266 0.42387 17,025 149 385 -2176
2017-10-19 10:27:25 GMT 43.73708 0.41238 17,350 150 388 -2176
2017-10-19 10:27:19 GMT 43.74672 0.40473 17,575 149 388 -2496
2017-10-19 10:27:15 GMT 43.75342 0.39934 17,750 149 388 -2560
2017-10-19 10:27:13 GMT 43.75608 0.39721 17,825 149 388 -2624
2017-10-19 10:27:11 GMT 43.75920 0.39472 17,900 149 387 -2688
2017-10-19 10:27:05 GMT 43.76935 0.38655 18,225 149 381 -2816
2017-10-19 10:27:03 GMT 43.77149 0.38478 18,275 149 380 -2816
2017-10-19 10:27:01 GMT 43.77466 0.38222 18,375 149 380 -2752
2017-10-19 10:26:53 GMT 43.78713 0.37203 18,725 149 373 -1408
2017-10-19 10:26:44 GMT 43.80034 0.36127 18,925 149 372 -640
2017-10-19 10:26:41 GMT 43.80552 0.35706 18,975 149 373 -128
2017-10-19 10:26:34 GMT 43.81562 0.34875 19,000 149 373 0
2017-10-19 10:26:32 GMT 43.81855 0.34633 19,000 149 373 0
2017-10-19 10:26:24 GMT 43.83103 0.33613 19,000 149 373 0
2017-10-19 10:26:21 GMT 43.83504 0.33285 19,000 149 372 0
2017-10-19 10:26:12 GMT 43.84836 0.32192 19,000 149 371 0
2017-10-19 10:26:10 GMT 43.85838 0.31362 19,000 149 371 0
2017-10-19 10:26:02 GMT 43.86208 0.31056 19,000 149 372 0
2017-10-19 10:25:56 GMT 43.87230 0.30219 19,000 149 372 0
2017-10-19 10:25:53 GMT 43.87761 0.29784 19,000 149 373 -64
2017-10-19 10:25:50 GMT 43.88059 0.29542 19,025 149 373 -64
2017-10-19 10:25:44 GMT 43.88843 0.28898 19,025 149 373 -64
2017-10-19 10:25:41 GMT 43.89423 0.28424 19,025 149 373 -64
2017-10-19 10:25:35 GMT 43.90462 0.27574 19,050 149 373 -128
2017-10-19 10:25:31 GMT 43.91012 0.27119 19,050 149 373 -128
2017-10-19 10:25:24 GMT 43.91885 0.26399 19,075 149 374 -256
2017-10-19 10:25:20 GMT 43.92525 0.25877 19,100 149 374 -320
2017-10-19 10:25:13 GMT 43.93639 0.24949 19,125 149 375 -384
2017-10-19 10:25:09 GMT 43.94028 0.24630 19,150 149 375 -448
2017-10-19 10:25:07 GMT 43.94472 0.24259 19,175 149 376 -512
2017-10-19 10:25:03 GMT 43.95057 0.23778 19,200 149 377 -640
2017-10-19 10:24:59 GMT 43.95612 0.23314 19,250 149 378 -960
2017-10-19 10:24:53 GMT 43.96649 0.22457 19,375 149 378 -1216
2017-10-19 10:24:50 GMT 43.97145 0.22049 19,450 149 378 -1408
2017-10-19 10:24:48 GMT 43.97205 0.21998 19,450 149 378 -1408
2017-10-19 10:24:38 GMT 43.98754 0.20717 19,750 149 377 -2368
2017-10-19 10:24:38 GMT 43.98830 0.20657 19,775 149 377 -2496
2017-10-19 10:24:32 GMT 43.99862 0.19802 20,050 149 374 -3200
2017-10-19 10:24:27 GMT 44.00354 0.19398 20,225 149 372 -3520
2017-10-19 10:24:18 GMT 44.01873 0.18140 20,850 149 371 -4288
2017-10-19 10:24:11 GMT 44.02934 0.17258 21,350 149 371 -4160
2017-10-19 10:24:07 GMT 44.03361 0.16907 21,550 149 373 -4096
2017-10-19 10:23:59 GMT 44.04520 0.15956 22,075 149 373 -4096
2017-10-19 10:23:57 GMT 44.04917 0.15623 22,275 148 374 -4160
2017-10-19 10:23:56 GMT 44.04917 0.15623 22,275 149 374 -4160
2017-10-19 10:23:51 GMT 44.05765 0.14921 22,650 148 374 -4288
2017-10-19 10:23:46 GMT 44.06463 0.14341 22,975 149 375 -4224
2017-10-19 10:23:45 GMT 44.06551 0.14263 23,025 149 375 -4224
2017-10-19 10:23:38 GMT 44.07710 0.13301 23,575 149 376 -4160
2017-10-19 10:23:36 GMT 44.08026 0.13037 23,725 149 376 -4160
2017-10-19 10:23:35 GMT 44.08190 0.12902 23,800 149 377 -4032
2017-10-19 10:23:27 GMT 44.09317 0.11983 24,300 149 377 -3968
2017-10-19 10:23:25 GMT 44.09633 0.11725 24,425 149 379 -3776
2017-10-19 10:23:19 GMT 44.10634 0.10908 24,850 149 382 -3520
2017-10-19 10:23:14 GMT 44.11271 0.10391 25,075 149 384 -3328
2017-10-19 10:23:10 GMT 44.11903 0.09881 25,300 149 389 -3136
2017-10-19 10:23:08 GMT 44.12215 0.09632 25,425 149 388 -3136
2017-10-19 10:23:04 GMT 44.12882 0.09096 25,650 150 391 -3136
2017-10-19 10:22:59 GMT 44.13701 0.08442 25,925 150 395 -3264
2017-10-19 10:22:57 GMT 44.13860 0.08318 25,975 150 396 -3264
2017-10-19 10:22:52 GMT 44.14769 0.07595 26,300 150 399 -3520
2017-10-19 10:22:49 GMT 44.15298 0.07180 26,475 150 403 -3776
2017-10-19 10:22:46 GMT 44.15657 0.06899 26,625 150 402 -3712
2017-10-19 10:22:43 GMT 44.16124 0.06528 26,800 150 404 -3840
2017-10-19 10:22:35 GMT 44.17416 0.05519 27,325 150 407 -3968
2017-10-19 10:22:33 GMT 44.17840 0.05186 27,475 150 407 -3904
2017-10-19 10:22:28 GMT 44.18550 0.04631 27,750 150 410 -3648
2017-10-19 10:22:26 GMT 44.19044 0.04241 27,950 150 412 -3520
2017-10-19 10:22:21 GMT 44.19736 0.03688 28,200 150 414 -3392
2017-10-19 10:22:18 GMT 44.20219 0.03309 28,375 150 419 -3264
2017-10-19 10:22:15 GMT 44.20738 0.02897 28,550 150 418 -3200
2017-10-19 10:22:11 GMT 44.21375 0.02394 28,750 150 420 -3264
2017-10-19 10:22:08 GMT 44.22089 0.01838 28,975 150 423 -3584
2017-10-19 10:22:06 GMT 44.22464 0.01543 29,125 150 424 -3712
2017-10-19 10:22:02 GMT 44.23058 0.01078 29,350 150 427 -3776
2017-10-19 10:22:00 GMT 44.23320 0.00876 29,425 150 426 -3776
2017-10-19 10:21:57 GMT 44.23850 0.00462 29,625 151 428 -3776
2017-10-19 10:21:54 GMT 44.24371 0.00060 29,800 151 430 -3648
2017-10-19 10:21:50 GMT 44.25087 -0.00477 30,075 151 431 -3328
2017-10-19 10:21:46 GMT 44.25949 -0.01119 30,350 151 432 -2816
2017-10-19 10:21:44 GMT 44.26108 -0.01242 30,375 151 432 -2816
2017-10-19 10:21:41 GMT 44.26776 -0.01740 30,550 152 433 -2496
2017-10-19 10:21:39 GMT 44.26936 -0.01856 30,600 152 434 -2048
2017-10-19 10:21:34 GMT 44.28017 -0.02655 30,825 152 436 -1600
2017-10-19 10:21:29 GMT 44.28859 -0.03262 30,950 152 439 -512
2017-10-19 10:21:24 GMT 44.29738 -0.03911 31,000 151 440 0
2017-10-19 10:21:20 GMT 44.30635 -0.04571 31,000 152 439 0
2017-10-19 10:21:16 GMT 44.31270 -0.05031 31,000 152 436 0
2017-10-19 10:21:13 GMT 44.31720 -0.05356 31,000 152 439 0
2017-10-19 10:21:08 GMT 44.32617 -0.06010 31,000 152 436 0
2017-10-19 10:21:05 GMT 44.33319 -0.06525 31,025 152 437 0
2017-10-19 10:21:02 GMT 44.33693 -0.06801 31,025 152 436 0
2017-10-19 10:20:59 GMT 44.34250 -0.07201 31,025 152 435 128
2017-10-19 10:20:52 GMT 44.35336 -0.07998 31,025 152 434 384
2017-10-19 10:20:47 GMT 44.36242 -0.08662 30,975 151 433 -384
2017-10-19 10:20:43 GMT 44.37286 -0.09436 31,025 152 433 -512
2017-10-19 10:20:38 GMT 44.37996 -0.09960 31,050 152 433 -448
2017-10-19 10:20:31 GMT 44.39420 -0.10999 31,150 151 445 -1856
2017-10-19 10:20:26 GMT 44.40013 -0.11435 31,250 152 441 -1664
2017-10-19 10:20:21 GMT 44.40967 -0.12150 31,350 151 443 -1728
2017-10-19 10:20:16 GMT 44.41800 -0.12785 31,525 151 446 -2048
2017-10-19 10:20:11 GMT 44.42738 -0.13504 31,700 151 448 -1984
2017-10-19 10:20:06 GMT 44.43608 -0.14178 31,850 151 448 -2304
2017-10-19 10:20:06 GMT 44.43608 -0.14178 31,850 151 448 -2304
2017-10-19 10:20:00 GMT 44.44756 -0.15053 32,100 151 450 -1984
2017-10-19 10:19:55 GMT 44.45743 -0.15810 32,300 150 451 -1664
2017-10-19 10:19:53 GMT 44.46218 -0.16171 32,350 151 453 -1664
2017-10-19 10:19:51 GMT 44.46565 -0.16447 32,425 151 453 -1664
2017-10-19 10:19:46 GMT 44.47481 -0.17153 32,550 151 455 -1984
2017-10-19 10:19:39 GMT 44.48532 -0.17960 32,725 150 457 -768
2017-10-19 10:19:34 GMT 44.49570 -0.18764 32,800 150 461 -512
2017-10-19 10:19:31 GMT 44.50259 -0.19298 32,850 151 463 -768
2017-10-19 10:19:29 GMT 44.50431 -0.19427 32,850 151 464 -640
2017-10-19 10:19:25 GMT 44.51148 -0.19970 32,900 151 465 -704
2017-10-19 10:19:21 GMT 44.52036 -0.20645 32,950 151 467 -448
2017-10-19 10:19:19 GMT 44.52433 -0.20948 32,975 151 468 -320
2017-10-19 10:19:14 GMT 44.53345 -0.21644 33,000 151 469 -192
2017-10-19 10:19:11 GMT 44.54054 -0.22182 33,000 151 471 128
2017-10-19 10:19:08 GMT 44.54379 -0.22428 33,000 150 471 192
2017-10-19 10:19:03 GMT 44.55445 -0.23259 33,025 150 470 0
2017-10-19 10:18:59 GMT 44.56315 -0.23949 33,000 150 470 0
2017-10-19 10:18:53 GMT 44.57302 -0.24719 33,000 150 471 64
2017-10-19 10:18:49 GMT 44.57991 -0.25255 32,975 151 471 64
2017-10-19 10:18:47 GMT 44.58389 -0.25563 32,975 151 471 0
2017-10-19 10:18:43 GMT 44.59309 -0.26269 32,975 151 470 -64
2017-10-19 10:18:42 GMT 44.59424 -0.26354 32,975 151 470 -64
2017-10-19 10:18:39 GMT 44.59974 -0.26782 32,975 151 471 -64
2017-10-19 10:18:37 GMT 44.60435 -0.27131 32,975 151 471 -64
2017-10-19 10:18:33 GMT 44.61273 -0.27781 32,975 151 470 0
2017-10-19 10:18:31 GMT 44.61447 -0.27910 32,975 151 471 0
2017-10-19 10:18:27 GMT 44.62339 -0.28605 33,000 150 470 0
2017-10-19 10:18:21 GMT 44.63405 -0.29435 33,000 150 470 -128
2017-10-19 10:18:18 GMT 44.64090 -0.29971 33,025 150 470 128
2017-10-19 10:18:16 GMT 44.64281 -0.30119 33,025 150 470 128
2017-10-19 10:18:10 GMT 44.65439 -0.31023 32,975 150 470 0
2017-10-19 10:18:06 GMT 44.66254 -0.31666 33,000 150 470 -64
2017-10-19 10:18:01 GMT 44.67162 -0.32383 33,000 150 469 0
2017-10-19 10:17:58 GMT 44.67975 -0.33018 33,025 150 469 0
2017-10-19 10:17:55 GMT 44.68261 -0.33240 33,000 150 469 0
2017-10-19 10:17:51 GMT 44.69339 -0.34084 33,000 150 468 192
2017-10-19 10:17:47 GMT 44.69907 -0.34529 33,000 150 467 128
2017-10-19 10:17:45 GMT 44.70300 -0.34848 32,975 150 468 64
2017-10-19 10:17:40 GMT 44.71188 -0.35555 33,000 150 469 -256
2017-10-19 10:17:35 GMT 44.72131 -0.36307 33,025 150 470 -768
2017-10-19 10:17:31 GMT 44.73056 -0.37039 33,075 150 471 -1280
2017-10-19 10:17:28 GMT 44.73605 -0.37478 33,150 150 471 -1472
2017-10-19 10:17:25 GMT 44.74005 -0.37796 33,175 150 471 -1472
2017-10-19 10:17:23 GMT 44.74424 -0.38124 33,250 150 471 -1472
2017-10-19 10:17:20 GMT 44.74974 -0.38563 33,300 150 471 -1216
2017-10-19 10:17:17 GMT 44.75619 -0.39073 33,375 150 473 -1088
2017-10-19 10:17:15 GMT 44.76021 -0.39383 33,425 150 473 -960
2017-10-19 10:17:09 GMT 44.76956 -0.40120 33,500 151 474 -832
2017-10-19 10:17:06 GMT 44.77611 -0.40623 33,525 151 474 -832
2017-10-19 10:17:04 GMT 44.78088 -0.40998 33,600 149 475 -960
2017-10-19 10:16:59 GMT 44.79135 -0.41853 33,675 148 476 -960
2017-10-19 10:16:56 GMT 44.79494 -0.42157 33,700 147 476 -960
2017-10-19 10:16:53 GMT 44.80064 -0.42677 33,775 142 476 -1280
2017-10-19 10:16:48 GMT 44.81053 -0.43664 33,875 141 476 -1280
2017-10-19 10:16:44 GMT 44.81657 -0.44338 33,950 139 475 -1408
2017-10-19 10:16:39 GMT 44.82642 -0.45574 34,100 135 475 -1344
2017-10-19 10:16:37 GMT 44.82957 -0.46005 34,150 134 475 -1408
2017-10-19 10:16:33 GMT 44.83432 -0.46685 34,225 133 476 -1344
2017-10-19 10:16:26 GMT 44.84477 -0.48229 34,375 133 474 -1408
2017-10-19 10:16:24 GMT 44.84967 -0.48941 34,450 133 473 -1536
2017-10-19 10:16:19 GMT 44.85544 -0.49778 34,550 133 473 -1600
2017-10-19 10:16:17 GMT 44.85905 -0.50315 34,625 134 473 -1536
2017-10-19 10:16:12 GMT 44.86729 -0.51505 34,775 133 472 -1408
2017-10-19 10:16:06 GMT 44.87589 -0.52768 34,900 133 471 -1088
2017-10-19 10:16:03 GMT 44.88134 -0.53558 34,950 134 471 -640
2017-10-19 10:16:01 GMT 44.88343 -0.53866 34,975 134 472 -256
2017-10-19 10:15:56 GMT 44.89107 -0.54965 35,000 134 473 128
2017-10-19 10:15:52 GMT 44.89668 -0.55782 35,000 133 473 128
2017-10-19 10:15:50 GMT 44.89987 -0.56251 34,975 133 473 64
2017-10-19 10:15:46 GMT 44.90671 -0.57247 34,975 134 473 0
2017-10-19 10:15:45 GMT 44.90671 -0.57247 34,975 134 473 0
2017-10-19 10:15:42 GMT 44.91248 -0.58090 34,975 134 473 0
2017-10-19 10:15:38 GMT 44.91737 -0.58796 35,000 134 473 0
2017-10-19 10:15:36 GMT 44.92212 -0.59480 35,000 133 473 0
2017-10-19 10:15:30 GMT 44.93064 -0.60720 34,975 133 473 -64
2017-10-19 10:15:26 GMT 44.93641 -0.61564 35,000 134 474 -64
2017-10-19 10:15:24 GMT 44.94097 -0.62227 35,000 134 473 -64
2017-10-19 10:15:19 GMT 44.94707 -0.63111 35,000 134 473 0
2017-10-19 10:15:15 GMT 44.95289 -0.63955 35,000 134 473 0
2017-10-19 10:15:12 GMT 44.95806 -0.64706 35,000 134 473 0
2017-10-19 10:15:10 GMT 44.96036 -0.65042 35,000 134 473 0
2017-10-19 10:15:08 GMT 44.96327 -0.65462 35,000 133 473 0
2017-10-19 10:15:06 GMT 44.96844 -0.66213 35,000 133 473 0
2017-10-19 10:15:02 GMT 44.97239 -0.66796 35,000 133 473 64
2017-10-19 10:14:59 GMT 44.97663 -0.67419 35,000 133 474 0
2017-10-19 10:14:57 GMT 44.97966 -0.67861 35,000 133 473 0
2017-10-19 10:14:53 GMT 44.98622 -0.68822 34,975 133 474 0
2017-10-19 10:14:49 GMT 44.99213 -0.69690 34,975 133 474 0
2017-10-19 10:14:47 GMT 44.99609 -0.70266 35,000 133 474 0
2017-10-19 10:14:43 GMT 45.00098 -0.70976 35,000 133 473 0
2017-10-19 10:14:39 GMT 45.00778 -0.71980 35,000 133 473 0
2017-10-19 10:14:36 GMT 45.01236 -0.72647 34,975 133 474 0
2017-10-19 10:14:34 GMT 45.01570 -0.73138 34,975 133 473 0
2017-10-19 10:14:32 GMT 45.01872 -0.73582 34,975 133 473 0
2017-10-19 10:14:28 GMT 45.02495 -0.74499 35,000 133 474 0
2017-10-19 10:14:25 GMT 45.02891 -0.75075 35,000 133 473 0
2017-10-19 10:14:23 GMT 45.03268 -0.75636 35,000 133 473 0
2017-10-19 10:14:17 GMT 45.04041 -0.76770 34,975 133 474 0
2017-10-19 10:14:15 GMT 45.04449 -0.77375 34,975 133 474 0
2017-10-19 10:14:12 GMT 45.04875 -0.78003 34,975 133 474 0
2017-10-19 10:14:07 GMT 45.05631 -0.79121 34,975 133 474 0
2017-10-19 10:14:07 GMT 45.05631 -0.79121 34,975 133 474 0
2017-10-19 10:14:04 GMT 45.06070 -0.79765 34,975 133 474 0
2017-10-19 10:14:02 GMT 45.06358 -0.80194 34,975 133 474 0
2017-10-19 10:13:58 GMT 45.07104 -0.81285 34,975 133 474 0
2017-10-19 10:13:53 GMT 45.07722 -0.82208 34,975 133 475 0
2017-10-19 10:13:51 GMT 45.08025 -0.82652 34,975 133 475 0
2017-10-19 10:13:47 GMT 45.08720 -0.83692 34,975 133 475 -64
2017-10-19 10:13:44 GMT 45.09282 -0.84521 35,000 133 476 -64
2017-10-19 10:13:41 GMT 45.09508 -0.84863 35,000 133 476 -64
2017-10-19 10:13:36 GMT 45.10323 -0.86079 35,000 133 476 0
2017-10-19 10:13:33 GMT 45.10791 -0.86779 35,000 133 476 0
2017-10-19 10:13:31 GMT 45.11033 -0.87140 35,000 133 476 0
2017-10-19 10:13:27 GMT 45.11838 -0.88335 35,000 133 477 64
2017-10-19 10:13:25 GMT 45.11913 -0.88447 35,000 133 477 64
2017-10-19 10:13:22 GMT 45.12462 -0.89257 35,000 133 478 64
2017-10-19 10:13:20 GMT 45.12694 -0.89597 35,000 133 478 0
2017-10-19 10:13:15 GMT 45.13537 -0.90831 34,975 134 478 0
2017-10-19 10:13:11 GMT 45.14259 -0.91880 35,000 134 478 -128
2017-10-19 10:13:06 GMT 45.15065 -0.93044 35,000 134 478 -128
2017-10-19 10:13:04 GMT 45.15143 -0.93156 35,000 134 478 -128
2017-10-19 10:13:00 GMT 45.15898 -0.94247 35,025 133 478 64
2017-10-19 10:12:55 GMT 45.16754 -0.95516 35,000 133 478 128
2017-10-19 10:12:53 GMT 45.17043 -0.95943 35,000 133 478 64
2017-10-19 10:12:49 GMT 45.17439 -0.96532 35,000 134 478 0
2017-10-19 10:12:42 GMT 45.18590 -0.98132 35,000 140 480 -64
2017-10-19 10:12:39 GMT 45.19077 -0.98723 35,000 141 481 -64
2017-10-19 10:12:34 GMT 45.20123 -0.99845 35,000 146 482 -128
2017-10-19 10:12:34 GMT 45.20123 -0.99845 35,000 146 482 -128
2017-10-19 10:12:32 GMT 45.20436 -1.00143 35,000 150 483 -128
2017-10-19 10:12:29 GMT 45.21004 -1.00646 35,000 150 483 -128
2017-10-19 10:12:23 GMT 45.22178 -1.01556 35,000 155 483 -64
2017-10-19 10:12:21 GMT 45.22559 -1.01813 35,000 157 483 -128
2017-10-19 10:12:18 GMT 45.23155 -1.02180 35,000 159 483 -64
2017-10-19 10:12:11 GMT 45.24774 -1.02997 35,000 165 484 -128
2017-10-19 10:12:07 GMT 45.25465 -1.03258 35,000 167 483 -128
2017-10-19 10:12:01 GMT 45.26820 -1.03644 35,000 172 483 -128
2017-10-19 10:11:57 GMT 45.27708 -1.03801 35,000 176 483 -128
2017-10-19 10:11:51 GMT 45.29045 -1.03906 35,000 181 483 -128
2017-10-19 10:11:46 GMT 45.30162 -1.03873 34,975 185 482 -128
2017-10-19 10:11:41 GMT 45.31381 -1.03727 35,000 187 481 -128
2017-10-19 10:11:39 GMT 45.31581 -1.03697 35,000 188 481 -128
2017-10-19 10:11:37 GMT 45.32153 -1.03579 35,000 190 480 -128
2017-10-19 10:11:35 GMT 45.32614 -1.03472 35,000 192 480 -128
2017-10-19 10:11:30 GMT 45.33573 -1.03205 35,000 194 479 -128
2017-10-19 10:11:27 GMT 45.34346 -1.02937 35,000 197 478 -128
2017-10-19 10:11:25 GMT 45.34775 -1.02769 35,000 198 478 -128
2017-10-19 10:11:21 GMT 45.35743 -1.02334 35,000 200 476 -128
2017-10-19 10:11:17 GMT 45.36530 -1.01932 35,000 202 475 -128
2017-10-19 10:11:14 GMT 45.37023 -1.01650 35,000 204 475 -128
2017-10-19 10:11:10 GMT 45.37828 -1.01148 35,000 207 474 -128
2017-10-19 10:11:05 GMT 45.38769 -1.00485 35,000 209 473 -128
2017-10-19 10:11:02 GMT 45.39249 -1.00113 35,000 210 472 -128
2017-10-19 10:11:00 GMT 45.39835 -0.99627 35,000 213 471 -128
2017-10-19 10:10:56 GMT 45.40553 -0.98975 35,000 215 470 -128
2017-10-19 10:10:53 GMT 45.41016 -0.98517 35,000 217 470 0
2017-10-19 10:10:50 GMT 45.41627 -0.97879 35,000 218 469 0
2017-10-19 10:10:48 GMT 45.41785 -0.97713 35,000 219 468 0
2017-10-19 10:10:46 GMT 45.42357 -0.97052 35,000 221 468 0
2017-10-19 10:10:42 GMT 45.42847 -0.96444 35,000 223 467 0
2017-10-19 10:10:39 GMT 45.43489 -0.95588 35,000 226 465 0
2017-10-19 10:10:35 GMT 45.43986 -0.94868 35,000 228 464 0
2017-10-19 10:10:32 GMT 45.44421 -0.94195 35,000 230 464 0
2017-10-19 10:10:28 GMT 45.44925 -0.93358 35,000 232 462 0
2017-10-19 10:10:24 GMT 45.45412 -0.92473 35,000 235 462 0
2017-10-19 10:10:19 GMT 45.46111 -0.91056 35,000 238 461 0
2017-10-19 10:10:17 GMT 45.46271 -0.90703 35,000 239 460 0
2017-10-19 10:10:14 GMT 45.46669 -0.89768 35,000 241 460 0
2017-10-19 10:10:09 GMT 45.47185 -0.88413 35,000 245 458 0
2017-10-19 10:10:06 GMT 45.47395 -0.87817 35,000 245 459 0
2017-10-19 10:10:04 GMT 45.47630 -0.87073 35,000 248 458 0
2017-10-19 10:10:00 GMT 45.47991 -0.85821 34,975 252 458 0
2017-10-19 10:09:58 GMT 45.48168 -0.85137 34,975 253 457 0
2017-10-19 10:09:56 GMT 45.48203 -0.85000 34,975 253 457 0
2017-10-19 10:09:54 GMT 45.48422 -0.84026 34,975 255 457 -64
2017-10-19 10:09:49 GMT 45.48637 -0.82921 35,000 257 457 -64
2017-10-19 10:09:47 GMT 45.48784 -0.82044 35,000 259 457 0
2017-10-19 10:09:42 GMT 45.48945 -0.80897 35,000 261 457 0
2017-10-19 10:09:39 GMT 45.49066 -0.79825 35,000 264 456 -64
2017-10-19 10:09:36 GMT 45.49136 -0.78958 35,000 267 457 -64
2017-10-19 10:09:32 GMT 45.49200 -0.77879 35,000 268 457 -128
2017-10-19 10:09:28 GMT 45.49238 -0.76710 35,000 270 457 -64
2017-10-19 10:09:26 GMT 45.49238 -0.75806 35,000 272 457 0
2017-10-19 10:09:21 GMT 45.49210 -0.74667 35,000 275 457 0
2017-10-19 10:09:19 GMT 45.49159 -0.73709 35,000 277 457 0
2017-10-19 10:09:17 GMT 45.49136 -0.73407 35,000 279 457 0
2017-10-19 10:09:15 GMT 45.49071 -0.72630 34,975 279 458 -64
2017-10-19 10:09:11 GMT 45.48962 -0.71588 34,975 281 458 -64
2017-10-19 10:09:07 GMT 45.48796 -0.70373 35,000 285 458 0
2017-10-19 10:09:04 GMT 45.48651 -0.69521 35,000 292 459 0
2017-10-19 10:09:01 GMT 45.48486 -0.68652 35,000 288 459 -64
2017-10-19 10:08:58 GMT 45.48279 -0.67700 35,000 291 459 0
2017-10-19 10:08:56 GMT 45.48166 -0.67213 35,000 291 459 0
2017-10-19 10:08:54 GMT 45.48019 -0.66644 35,000 292 459 0
2017-10-19 10:08:51 GMT 45.47736 -0.65637 35,000 294 460 0
2017-10-19 10:08:48 GMT 45.47469 -0.64779 35,000 297 461 0
2017-10-19 10:08:46 GMT 45.47288 -0.64230 35,000 298 460 0
2017-10-19 10:08:43 GMT 45.47026 -0.63505 35,000 305 462 -128
2017-10-19 10:08:41 GMT 45.46813 -0.62944 34,975 301 461 -64
2017-10-19 10:08:34 GMT 45.45966 -0.60981 35,000 305 462 -128
2017-10-19 10:08:31 GMT 45.45612 -0.60261 35,000 308 462 -64
2017-10-19 10:08:28 GMT 45.45240 -0.59561 35,000 310 461 0
2017-10-19 10:08:23 GMT 45.44620 -0.58482 35,000 313 461 0
2017-10-19 10:08:20 GMT 45.44238 -0.57868 35,000 314 461 0
2017-10-19 10:08:17 GMT 45.43803 -0.57207 35,000 316 461 0
2017-10-19 10:08:13 GMT 45.43098 -0.56240 35,000 319 460 -64
2017-10-19 10:08:09 GMT 45.42642 -0.55662 35,000 321 460 -64
2017-10-19 10:08:06 GMT 45.42101 -0.55023 35,000 322 460 -128
2017-10-19 10:08:03 GMT 45.41548 -0.54422 35,000 325 458 -128
2017-10-19 10:07:59 GMT 45.40887 -0.53766 35,000 327 457 0
2017-10-19 10:07:56 GMT 45.40411 -0.53323 35,000 328 456 0
2017-10-19 10:07:52 GMT 45.39644 -0.52634 35,000 329 455 0
2017-10-19 10:07:48 GMT 45.39001 -0.52064 35,000 328 453 0
2017-10-19 10:07:45 GMT 45.38274 -0.51420 35,000 328 452 0
2017-10-19 10:07:41 GMT 45.37763 -0.50959 35,000 328 451 -128
2017-10-19 10:07:39 GMT 45.37163 -0.50416 35,000 328 451 -384
2017-10-19 10:07:37 GMT 45.36814 -0.50102 35,025 329 451 -640
2017-10-19 10:07:33 GMT 45.36227 -0.49586 35,050 329 450 -1024
2017-10-19 10:07:31 GMT 45.35733 -0.49151 35,100 328 450 -1408
2017-10-19 10:07:28 GMT 45.35361 -0.48822 35,150 328 450 -1536
2017-10-19 10:07:26 GMT 45.35012 -0.48507 35,200 328 450 -1792
2017-10-19 10:07:21 GMT 45.34095 -0.47690 35,350 328 449 -1600
2017-10-19 10:07:19 GMT 45.33848 -0.47469 35,375 328 449 -1536
2017-10-19 10:07:17 GMT 45.33517 -0.47169 35,425 328 450 -1472
2017-10-19 10:07:15 GMT 45.33165 -0.46855 35,500 328 450 -1344
2017-10-19 10:07:09 GMT 45.32126 -0.45928 35,625 328 450 -1088
2017-10-19 10:07:06 GMT 45.31455 -0.45332 35,700 328 451 -960
2017-10-19 10:06:59 GMT 45.30254 -0.44260 35,800 328 452 -704
2017-10-19 10:06:57 GMT 45.29883 -0.43932 35,825 329 453 -640
2017-10-19 10:06:55 GMT 45.29526 -0.43612 35,850 329 453 -640
2017-10-19 10:06:47 GMT 45.28061 -0.42317 35,925 328 457 -320
2017-10-19 10:06:45 GMT 45.27814 -0.42095 35,925 329 458 -256
2017-10-19 10:06:36 GMT 45.25941 -0.40440 35,975 329 459 -128
2017-10-19 10:06:27 GMT 45.24536 -0.39198 36,000 328 460 0
2017-10-19 10:06:25 GMT 45.24175 -0.38877 36,000 328 460 0
2017-10-19 10:06:16 GMT 45.22481 -0.37380 35,975 328 460 0
2017-10-19 10:06:13 GMT 45.22124 -0.37059 35,975 328 460 0
2017-10-19 10:06:07 GMT 45.20916 -0.35987 36,000 329 459 0
2017-10-19 10:06:04 GMT 45.20446 -0.35572 35,975 329 460 0
2017-10-19 10:05:54 GMT 45.18658 -0.33999 35,975 329 459 0
2017-10-19 10:05:46 GMT 45.17216 -0.32730 36,000 328 460 0
2017-10-19 10:05:43 GMT 45.16676 -0.32253 36,000 328 460 64
2017-10-19 10:05:39 GMT 45.15921 -0.31579 35,975 328 460 128
2017-10-19 10:05:36 GMT 45.15198 -0.30945 35,975 328 460 -128
2017-10-19 10:05:33 GMT 45.14836 -0.30624 35,975 328 460 -128
2017-10-19 10:05:23 GMT 45.12964 -0.28970 36,000 328 460 0
2017-10-19 10:05:15 GMT 45.11359 -0.27553 36,025 329 459 0
2017-10-19 10:05:13 GMT 45.11055 -0.27283 36,000 329 459 0
2017-10-19 10:05:08 GMT 45.10332 -0.26655 36,000 329 459 0
2017-10-19 10:05:02 GMT 45.09178 -0.25641 36,025 329 459 64
2017-10-19 10:04:59 GMT 45.08707 -0.25236 36,000 329 459 128
2017-10-19 10:04:52 GMT 45.07375 -0.24059 36,000 328 459 0
2017-10-19 10:04:50 GMT 45.07104 -0.23815 36,000 329 459 0
2017-10-19 10:04:44 GMT 45.05827 -0.22692 36,000 329 458 0
2017-10-19 10:04:42 GMT 45.05360 -0.22280 35,975 329 458 0
2017-10-19 10:04:39 GMT 45.05088 -0.22046 36,000 329 459 0
2017-10-19 10:04:33 GMT 45.04028 -0.21109 36,000 328 459 64
2017-10-19 10:04:31 GMT 45.03575 -0.20713 36,000 328 459 128
2017-10-19 10:04:29 GMT 45.03291 -0.20459 35,975 328 459 64
2017-10-19 10:04:23 GMT 45.02067 -0.19380 35,975 329 459 -64
2017-10-19 10:04:21 GMT 45.01726 -0.19076 35,975 329 458 -64
2017-10-19 10:04:18 GMT 45.01364 -0.18762 35,975 329 458 -64
2017-10-19 10:04:12 GMT 45.00051 -0.17612 36,000 329 458 0
2017-10-19 10:04:10 GMT 44.99870 -0.17451 36,000 329 458 0
2017-10-19 10:04:08 GMT 44.99511 -0.17136 36,000 329 458 0
2017-10-19 10:04:01 GMT 44.98287 -0.16058 36,000 329 458 0
2017-10-19 10:03:59 GMT 44.97908 -0.15728 35,975 329 458 0
2017-10-19 10:03:52 GMT 44.96649 -0.14622 36,000 328 460 -64
2017-10-19 10:03:49 GMT 44.95999 -0.14047 36,000 328 460 -64
2017-10-19 10:03:47 GMT 44.95747 -0.13824 36,000 328 459 0
2017-10-19 10:03:39 GMT 44.94218 -0.12474 36,000 328 461 128
2017-10-19 10:03:36 GMT 44.93765 -0.12072 35,975 328 461 64
2017-10-19 10:03:29 GMT 44.92392 -0.10862 35,975 329 463 -64
2017-10-19 10:03:24 GMT 44.91542 -0.10116 35,975 329 463 -256
2017-10-19 10:03:22 GMT 44.91161 -0.09776 36,000 329 463 -128
2017-10-19 10:03:18 GMT 44.90433 -0.09142 36,000 329 463 0
2017-10-19 10:03:14 GMT 44.89689 -0.08488 36,000 328 463 64
2017-10-19 10:03:12 GMT 44.89293 -0.08133 36,000 328 465 192
2017-10-19 10:03:09 GMT 44.88748 -0.07657 36,000 328 464 128
2017-10-19 10:03:07 GMT 44.88547 -0.07481 36,000 328 464 128
2017-10-19 10:03:03 GMT 44.87692 -0.06726 35,975 328 465 64
2017-10-19 10:03:01 GMT 44.87291 -0.06371 35,975 328 466 0
2017-10-19 10:02:57 GMT 44.86453 -0.05627 35,975 328 466 -64
2017-10-19 10:02:53 GMT 44.85904 -0.05145 35,975 328 467 -64
2017-10-19 10:02:50 GMT 44.85317 -0.04629 35,975 328 467 -64
2017-10-19 10:02:47 GMT 44.84862 -0.04224 35,975 329 468 -64
2017-10-19 10:02:41 GMT 44.83632 -0.03148 36,000 328 469 0
2017-10-19 10:02:36 GMT 44.82673 -0.02311 36,000 328 470 64
2017-10-19 10:02:33 GMT 44.82305 -0.01983 36,000 329 470 64
2017-10-19 10:02:30 GMT 44.81752 -0.01494 36,000 328 472 -192
2017-10-19 10:02:27 GMT 44.80994 -0.00824 36,000 328 473 -320
2017-10-19 10:02:20 GMT 44.79886 0.00144 36,025 329 472 192
2017-10-19 10:02:16 GMT 44.79051 0.00878 36,000 328 472 64
2017-10-19 10:02:11 GMT 44.78200 0.01628 36,000 328 472 -128
2017-10-19 10:02:05 GMT 44.76943 0.02740 36,000 328 472 0
2017-10-19 10:02:01 GMT 44.76224 0.03374 36,000 328 472 192
2017-10-19 10:02:00 GMT 44.76224 0.03374 36,000 328 471 192
2017-10-19 10:01:55 GMT 44.75206 0.04267 36,000 328 471 0
2017-10-19 10:01:49 GMT 44.74191 0.05166 36,000 328 470 0
2017-10-19 10:01:44 GMT 44.73271 0.05984 36,000 328 471 128
2017-10-19 10:01:38 GMT 44.72163 0.06958 36,000 328 470 -64
2017-10-19 10:01:33 GMT 44.71226 0.07784 36,000 328 470 0
2017-10-19 10:01:28 GMT 44.70304 0.08595 36,000 328 469 0
2017-10-19 10:01:25 GMT 44.69606 0.09211 36,000 328 469 64
2017-10-19 10:01:23 GMT 44.69408 0.09384 36,000 328 468 -64
2017-10-19 10:01:16 GMT 44.68140 0.10497 36,000 328 466 0
2017-10-19 10:01:16 GMT 44.68140 0.10497 36,000 328 466 -128
2017-10-19 10:01:13 GMT 44.67483 0.11080 36,025 328 466 64
2017-10-19 10:01:06 GMT 44.66299 0.12124 36,000 328 465 -64
2017-10-19 10:01:02 GMT 44.65589 0.12748 36,000 328 464 128
2017-10-19 10:00:59 GMT 44.64917 0.13340 36,000 328 463 64
2017-10-19 10:00:55 GMT 44.64194 0.13975 36,000 329 463 64
2017-10-19 10:00:52 GMT 44.63754 0.14354 36,000 328 461 192
2017-10-19 10:00:45 GMT 44.62404 0.15548 36,000 329 460 0
2017-10-19 10:00:42 GMT 44.61877 0.16009 35,975 329 459 0
2017-10-19 10:00:35 GMT 44.60687 0.17042 36,000 329 458 -128
2017-10-19 10:00:32 GMT 44.60021 0.17612 36,000 329 457 0
2017-10-19 10:00:26 GMT 44.58834 0.18637 36,000 329 456 0
2017-10-19 10:00:22 GMT 44.58299 0.19099 36,000 329 455 -192
2017-10-19 10:00:20 GMT 44.58010 0.19347 36,000 329 455 -192
2017-10-19 10:00:15 GMT 44.57042 0.20177 36,025 329 453 192
2017-10-19 10:00:12 GMT 44.56436 0.20700 36,025 329 452 192
2017-10-19 10:00:10 GMT 44.56190 0.20921 36,000 329 452 192
2017-10-19 10:00:08 GMT 44.55831 0.21229 36,000 329 452 128
2017-10-19 10:00:01 GMT 44.54361 0.22509 36,000 329 450 0
2017-10-19 09:59:54 GMT 44.53313 0.23413 35,975 329 449 -128
2017-10-19 09:59:51 GMT 44.52857 0.23808 35,975 329 449 -320
2017-10-19 09:59:49 GMT 44.52503 0.24116 36,000 329 448 -256
2017-10-19 09:59:43 GMT 44.51321 0.25138 36,025 329 446 64
2017-10-19 09:59:41 GMT 44.50969 0.25439 36,000 329 446 64
2017-10-19 09:59:39 GMT 44.50621 0.25739 36,000 329 446 64
2017-10-19 09:59:33 GMT 44.49551 0.26662 36,000 329 444 0
2017-10-19 09:59:29 GMT 44.48868 0.27244 36,000 329 444 -128
2017-10-19 09:59:27 GMT 44.48589 0.27485 36,000 329 443 -64
2017-10-19 09:59:24 GMT 44.47888 0.28087 36,000 329 442 0
2017-10-19 09:59:19 GMT 44.47103 0.28759 36,000 329 441 192
2017-10-19 09:59:13 GMT 44.46097 0.29623 36,000 329 441 -64
2017-10-19 09:59:08 GMT 44.45247 0.30356 36,000 329 439 0
2017-10-19 09:59:03 GMT 44.44291 0.31170 36,000 329 437 64
2017-10-19 09:58:59 GMT 44.43553 0.31808 36,000 329 436 0
2017-10-19 09:58:56 GMT 44.43188 0.32115 36,000 329 436 0
2017-10-19 09:58:52 GMT 44.42450 0.32750 36,000 329 435 0
2017-10-19 09:58:48 GMT 44.41745 0.33348 35,975 329 435 0
2017-10-19 09:58:46 GMT 44.41367 0.33669 35,975 329 435 0
2017-10-19 09:58:40 GMT 44.40199 0.34660 35,975 329 434 0
2017-10-19 09:58:37 GMT 44.39687 0.35103 35,975 329 434 0
2017-10-19 09:58:36 GMT 44.39497 0.35261 35,975 329 434 64
2017-10-19 09:58:31 GMT 44.38916 0.35758 35,975 329 434 128
2017-10-19 09:58:27 GMT 44.38146 0.36416 35,975 329 434 256
2017-10-19 09:58:20 GMT 44.37052 0.37354 35,925 329 438 896
2017-10-19 09:58:16 GMT 44.36363 0.37943 35,875 329 439 1216
2017-10-19 09:58:10 GMT 44.35288 0.38861 35,700 329 445 1984
2017-10-19 09:58:05 GMT 44.34482 0.39558 35,550 329 451 1920
2017-10-19 09:57:59 GMT 44.33416 0.40475 35,350 329 459 2304
2017-10-19 09:57:55 GMT 44.32677 0.41120 35,175 329 468 2496
2017-10-19 09:57:53 GMT 44.32315 0.41434 35,100 329 475 2688
2017-10-19 09:57:49 GMT 44.31480 0.42157 34,900 329 477 2816
2017-10-19 09:57:45 GMT 44.30805 0.42733 34,750 329 484 3200
2017-10-19 09:57:42 GMT 44.30219 0.43239 34,575 329 493 3648
2017-10-19 09:57:40 GMT 44.29834 0.43573 34,450 329 488 3456
2017-10-19 09:57:36 GMT 44.28900 0.44370 34,175 329 498 3648
2017-10-19 09:57:34 GMT 44.28708 0.44540 34,100 329 502 3520
2017-10-19 09:57:28 GMT 44.27522 0.45548 33,725 329 508 2944
2017-10-19 09:57:24 GMT 44.26561 0.46365 33,500 329 512 2496
2017-10-19 09:57:18 GMT 44.25426 0.47333 33,300 329 515 1536
2017-10-19 09:57:15 GMT 44.24657 0.47987 33,200 329 517 1216
2017-10-19 09:57:14 GMT 44.24533 0.48091 33,200 329 517 1216
2017-10-19 09:57:07 GMT 44.23291 0.49157 33,050 329 517 1088
2017-10-19 09:57:03 GMT 44.22450 0.49870 33,000 329 518 960
2017-10-19 09:56:58 GMT 44.21164 0.50959 32,900 329 517 896
2017-10-19 09:56:55 GMT 44.20838 0.51240 32,850 329 517 896
2017-10-19 09:56:53 GMT 44.20409 0.51603 32,825 329 517 896
2017-10-19 09:56:50 GMT 44.19614 0.52279 32,775 329 517 896
2017-10-19 09:56:47 GMT 44.19022 0.52785 32,725 329 517 960
2017-10-19 09:56:46 GMT 44.19022 0.52785 32,725 329 517 960
2017-10-19 09:56:43 GMT 44.18285 0.53405 32,675 329 517 960
2017-10-19 09:56:36 GMT 44.16834 0.54637 32,550 329 517 1088
2017-10-19 09:56:33 GMT 44.16202 0.55168 32,500 329 517 1088
2017-10-19 09:56:25 GMT 44.14691 0.56452 32,350 329 517 1344
2017-10-19 09:56:21 GMT 44.13892 0.57122 32,250 329 518 1280
2017-10-19 09:56:19 GMT 44.13483 0.57469 32,225 329 518 1216
2017-10-19 09:56:16 GMT 44.12542 0.58260 32,125 329 518 1216
2017-10-19 09:56:12 GMT 44.11886 0.58816 32,050 329 518 1344
2017-10-19 09:56:06 GMT 44.10599 0.59901 31,900 329 519 1408
2017-10-19 09:56:04 GMT 44.10373 0.60091 31,900 329 519 1408
2017-10-19 09:56:00 GMT 44.09573 0.60770 31,800 329 519 1472
2017-10-19 09:55:57 GMT 44.08955 0.61287 31,725 329 520 1536
2017-10-19 09:55:55 GMT 44.08362 0.61792 31,650 329 521 1536
2017-10-19 09:55:52 GMT 44.07701 0.62341 31,550 329 520 1600
2017-10-19 09:55:46 GMT 44.06690 0.63191 31,425 330 522 1728
2017-10-19 09:55:44 GMT 44.06191 0.63606 31,350 330 522 1856
2017-10-19 09:55:40 GMT 44.05362 0.64296 31,225 329 523 2112
2017-10-19 09:55:34 GMT 44.03888 0.65526 30,975 329 527 1792
2017-10-19 09:55:33 GMT 44.03888 0.65526 30,975 329 527 1856
2017-10-19 09:55:28 GMT 44.02971 0.66297 30,850 329 528 1664
2017-10-19 09:55:23 GMT 44.01840 0.67246 30,675 329 529 1344
2017-10-19 09:55:20 GMT 44.01192 0.67783 30,625 329 529 1216
2017-10-19 09:55:12 GMT 43.99512 0.69182 30,475 330 530 1280
2017-10-19 09:55:09 GMT 43.98921 0.69667 30,400 330 529 1408
2017-10-19 09:55:04 GMT 43.97873 0.70536 30,275 330 529 1408
2017-10-19 09:55:02 GMT 43.97452 0.70887 30,250 330 530 1408
2017-10-19 09:54:58 GMT 43.96440 0.71718 30,125 330 529 1408
2017-10-19 09:54:51 GMT 43.95192 0.72732 29,975 330 531 1536
2017-10-19 09:54:48 GMT 43.94582 0.73232 29,900 330 530 1600
2017-10-19 09:54:42 GMT 43.92948 0.74550 29,675 330 531 1728
2017-10-19 09:54:38 GMT 43.92329 0.75046 29,600 331 533 1792
2017-10-19 09:54:31 GMT 43.90750 0.76310 29,375 331 533 1728
2017-10-19 09:54:29 GMT 43.90151 0.76783 29,300 331 534 1792
2017-10-19 09:54:21 GMT 43.88447 0.78108 29,050 331 536 1792
2017-10-19 09:54:18 GMT 43.87990 0.78463 28,975 332 537 1664
2017-10-19 09:54:09 GMT 43.86159 0.79849 28,775 332 537 1152
2017-10-19 09:54:07 GMT 43.85700 0.80187 28,725 333 537 1024
2017-10-19 09:54:00 GMT 43.83806 0.81560 28,575 334 537 1088
2017-10-19 09:53:57 GMT 43.83187 0.81992 28,525 334 536 1152
2017-10-19 09:53:49 GMT 43.81604 0.83055 28,375 336 535 1216
2017-10-19 09:53:47 GMT 43.81201 0.83317 28,350 336 536 1152
2017-10-19 09:53:38 GMT 43.79141 0.84588 28,175 337 535 960
2017-10-19 09:53:36 GMT 43.78643 0.84889 28,125 338 534 960
2017-10-19 09:53:29 GMT 43.76860 0.85896 28,000 340 532 1088
2017-10-19 09:53:28 GMT 43.76860 0.85896 28,000 340 532 1088
2017-10-19 09:53:26 GMT 43.76399 0.86138 27,975 340 532 1088
2017-10-19 09:53:24 GMT 43.75914 0.86390 27,925 340 533 1088
2017-10-19 09:53:16 GMT 43.74030 0.87282 27,775 343 530 1088
2017-10-19 09:53:07 GMT 43.71986 0.88121 27,625 346 529 1152
2017-10-19 09:53:07 GMT 43.71986 0.88121 27,625 346 529 1152
2017-10-19 09:53:05 GMT 43.71632 0.88250 27,600 346 529 1152
2017-10-19 09:52:57 GMT 43.69519 0.88957 27,425 349 527 1152
2017-10-19 09:52:56 GMT 43.69305 0.89022 27,400 349 526 1152
2017-10-19 09:52:56 GMT 43.69398 0.88996 27,425 349 527 1152
2017-10-19 09:52:53 GMT 43.68709 0.89194 27,350 349 527 1152
2017-10-19 09:52:48 GMT 43.67536 0.89506 27,250 351 525 1216
2017-10-19 09:52:46 GMT 43.66912 0.89656 27,200 352 525 1152
2017-10-19 09:52:44 GMT 43.66530 0.89741 27,175 352 524 1152
2017-10-19 09:52:38 GMT 43.65161 0.90011 27,075 354 522 1152
2017-10-19 09:52:36 GMT 43.64442 0.90126 27,025 355 521 1152
2017-10-19 09:52:34 GMT 43.63891 0.90206 26,975 355 521 1152
2017-10-19 09:52:25 GMT 43.61870 0.90448 26,800 356 519 1152
2017-10-19 09:52:23 GMT 43.61395 0.90506 26,775 356 519 1216
2017-10-19 09:52:17 GMT 43.60148 0.90650 26,675 356 518 1216
2017-10-19 09:52:13 GMT 43.59169 0.90765 26,575 356 517 1280
2017-10-19 09:52:04 GMT 43.56926 0.91027 26,375 356 516 1344
2017-10-19 09:52:02 GMT 43.56568 0.91069 26,350 356 516 1344
2017-10-19 09:51:57 GMT 43.55330 0.91213 26,225 356 515 1344
2017-10-19 09:51:54 GMT 43.54546 0.91302 26,150 356 515 1344
2017-10-19 09:51:43 GMT 43.52006 0.91605 25,900 356 514 1408
2017-10-19 09:51:33 GMT 43.49590 0.91886 25,675 356 513 1280
2017-10-19 09:51:23 GMT 43.47132 0.92167 25,450 356 510 1280
2017-10-19 09:51:11 GMT 43.44357 0.92488 25,175 356 509 1728
2017-10-19 09:51:03 GMT 43.42290 0.92723 24,925 356 509 1408
2017-10-19 09:51:01 GMT 43.42151 0.92743 24,900 356 509 1344
2017-10-19 09:50:52 GMT 43.39732 0.93020 24,700 356 506 896
2017-10-19 09:50:41 GMT 43.37337 0.93299 24,525 356 503 1344
2017-10-19 09:50:30 GMT 43.34857 0.93588 24,300 356 500 1344
2017-10-19 09:50:20 GMT 43.32533 0.93855 24,025 356 498 1536
2017-10-19 09:50:11 GMT 43.30307 0.94106 23,825 356 496 1088
2017-10-19 09:50:08 GMT 43.29895 0.94150 23,775 356 495 960
2017-10-19 09:50:00 GMT 43.27890 0.94380 23,650 356 491 960
2017-10-19 09:49:58 GMT 43.27437 0.94431 23,600 356 489 1152
2017-10-19 09:49:49 GMT 43.25471 0.94659 23,450 356 487 1600
2017-10-19 09:49:39 GMT 43.23157 0.94917 23,125 356 487 2432
2017-10-19 09:49:29 GMT 43.20839 0.95182 22,675 356 489 2176
2017-10-19 09:49:19 GMT 43.18581 0.95444 22,350 356 489 1792
2017-10-19 09:49:17 GMT 43.18400 0.95463 22,325 356 489 1792
2017-10-19 09:49:07 GMT 43.16054 0.95738 22,025 356 487 1664
2017-10-19 09:48:57 GMT 43.13832 0.96003 21,750 356 484 1728
2017-10-19 09:48:47 GMT 43.11491 0.96287 21,450 356 483 1728
2017-10-19 09:48:36 GMT 43.09154 0.96565 21,150 355 480 1536
2017-10-19 09:48:26 GMT 43.06897 0.96839 20,900 355 477 1472
2017-10-19 09:48:15 GMT 43.04526 0.97127 20,625 355 474 1728
2017-10-19 09:48:06 GMT 43.02342 0.97389 20,350 355 471 1344
2017-10-19 09:47:54 GMT 42.99999 0.97676 20,150 355 466 1408
2017-10-19 09:47:45 GMT 42.97749 0.97955 19,875 355 463 1920
2017-10-19 09:47:44 GMT 42.97833 0.97948 19,875 355 463 1920
2017-10-19 09:47:34 GMT 42.95549 0.98225 19,550 356 461 1920
2017-10-19 09:47:34 GMT 42.95549 0.98225 19,550 356 461 1920
2017-10-19 09:47:24 GMT 42.93384 0.98449 19,225 357 458 2304
2017-10-19 09:47:23 GMT 42.93173 0.98468 19,175 357 458 2368
2017-10-19 09:47:22 GMT 42.93173 0.98468 19,175 357 458 2368
2017-10-19 09:47:13 GMT 42.91162 0.98635 18,800 357 458 2432
2017-10-19 09:47:12 GMT 42.90926 0.98653 18,750 357 458 2240
2017-10-19 09:47:02 GMT 42.88893 0.98820 18,450 357 458 1280
2017-10-19 09:47:02 GMT 42.88683 0.98839 18,425 357 458 1216
2017-10-19 09:46:52 GMT 42.86691 0.99018 18,250 357 457 1088
2017-10-19 09:46:51 GMT 42.86586 0.99027 18,250 357 457 1088
2017-10-19 09:46:41 GMT 42.84435 0.99217 18,075 357 455 576
2017-10-19 09:46:35 GMT 42.83194 0.99311 18,025 357 454 448
2017-10-19 09:46:30 GMT 42.82168 0.99394 18,025 356 453 64
2017-10-19 09:46:30 GMT 42.82168 0.99394 18,025 356 453 64
2017-10-19 09:46:20 GMT 42.80100 0.99695 18,000 351 454 64
2017-10-19 09:46:10 GMT 42.77953 1.00225 17,975 347 454 0
2017-10-19 09:45:59 GMT 42.75751 1.01012 18,000 342 455 -64
2017-10-19 09:45:49 GMT 42.73668 1.02032 18,000 337 455 64
2017-10-19 09:45:39 GMT 42.71736 1.03169 17,975 337 454 0
2017-10-19 09:45:28 GMT 42.69580 1.04459 17,975 337 454 0
2017-10-19 09:45:17 GMT 42.67579 1.05660 17,975 337 455 0
2017-10-19 09:45:07 GMT 42.65561 1.06879 17,975 336 456 0
2017-10-19 09:44:58 GMT 42.63670 1.08022 17,975 337 457 0
2017-10-19 09:44:56 GMT 42.63593 1.08072 17,975 337 457 0
2017-10-19 09:44:46 GMT 42.61496 1.09314 17,975 337 459 0
2017-10-19 09:44:37 GMT 42.59604 1.10432 17,975 337 461 0
2017-10-19 09:44:35 GMT 42.59525 1.10476 17,975 337 461 0
2017-10-19 09:44:25 GMT 42.57374 1.11760 18,000 337 462 0
2017-10-19 09:44:20 GMT 42.56497 1.12285 18,000 337 460 0
2017-10-19 09:44:15 GMT 42.55303 1.12987 18,000 337 459 64
2017-10-19 09:44:14 GMT 42.55403 1.12935 18,000 337 459 64
2017-10-19 09:44:04 GMT 42.53283 1.14175 18,000 337 455 64
2017-10-19 09:43:53 GMT 42.51292 1.15350 17,975 337 451 64
2017-10-19 09:43:51 GMT 42.50835 1.15625 17,975 337 451 64
2017-10-19 09:43:47 GMT 42.50126 1.16046 17,975 337 450 -64
2017-10-19 09:43:44 GMT 42.49325 1.16525 17,975 337 450 -64
2017-10-19 09:43:43 GMT 42.49325 1.16525 17,975 337 450 -64
2017-10-19 09:43:40 GMT 42.48848 1.16805 17,975 337 450 -64
2017-10-19 09:43:32 GMT 42.47263 1.17752 17,975 337 453 0
2017-10-19 09:43:23 GMT 42.45294 1.18921 18,000 337 458 -128
2017-10-19 09:43:22 GMT 42.45200 1.18983 18,000 337 458 -128
2017-10-19 09:43:22 GMT 42.45294 1.18921 18,000 337 458 -128
2017-10-19 09:43:12 GMT 42.43332 1.20094 18,000 337 461 0
2017-10-19 09:43:12 GMT 42.43332 1.20094 18,000 337 461 0
2017-10-19 09:43:11 GMT 42.43153 1.20198 18,000 337 462 128
2017-10-19 09:43:02 GMT 42.41314 1.21290 18,000 337 461 64
2017-10-19 09:43:01 GMT 42.41217 1.21343 18,000 337 461 64
2017-10-19 09:43:00 GMT 42.41098 1.21418 18,000 337 461 64
2017-10-19 09:42:51 GMT 42.39163 1.22561 18,000 337 460 0
2017-10-19 09:42:51 GMT 42.39163 1.22561 18,000 337 460 0
2017-10-19 09:42:42 GMT 42.37520 1.23532 18,000 337 460 0
2017-10-19 09:42:40 GMT 42.37171 1.23743 18,000 337 460 0
2017-10-19 09:42:40 GMT 42.37171 1.23743 18,000 337 460 0
2017-10-19 09:42:38 GMT 42.36705 1.24024 18,000 337 460 0
2017-10-19 09:42:30 GMT 42.35124 1.24970 18,000 337 459 64
2017-10-19 09:42:28 GMT 42.34735 1.25200 18,000 337 459 64
2017-10-19 09:42:20 GMT 42.33138 1.26143 17,975 337 459 0
2017-10-19 09:42:18 GMT 42.32707 1.26399 17,975 337 459 -64
2017-10-19 09:42:10 GMT 42.31073 1.27354 18,000 337 459 0
2017-10-19 09:42:10 GMT 42.31073 1.27354 18,000 337 459 0
2017-10-19 09:42:08 GMT 42.30779 1.27524 18,000 337 459 0
2017-10-19 09:41:59 GMT 42.29086 1.28528 18,000 337 460 0
2017-10-19 09:41:58 GMT 42.28972 1.28596 18,000 337 460 0
2017-10-19 09:41:56 GMT 42.28583 1.28833 18,000 337 460 0
2017-10-19 09:41:49 GMT 42.26907 1.29826 18,000 337 461 0
2017-10-19 09:41:48 GMT 42.26907 1.29826 18,000 337 461 0
2017-10-19 09:41:48 GMT 42.27004 1.29766 18,000 337 461 0
2017-10-19 09:41:43 GMT 42.26083 1.30313 18,000 337 461 0
2017-10-19 09:41:37 GMT 42.24895 1.31018 18,000 337 461 -64
2017-10-19 09:41:37 GMT 42.24895 1.31018 18,000 337 461 0
2017-10-19 09:41:34 GMT 42.24308 1.31363 18,000 337 460 0
2017-10-19 09:41:28 GMT 42.22998 1.32136 18,000 337 459 0
2017-10-19 09:41:27 GMT 42.22884 1.32204 18,000 337 459 0
2017-10-19 09:41:20 GMT 42.21520 1.33010 18,000 337 457 64
2017-10-19 09:41:17 GMT 42.20957 1.33343 18,000 337 457 64
2017-10-19 09:41:17 GMT 42.20957 1.33343 18,000 337 457 64
2017-10-19 09:41:15 GMT 42.20607 1.33548 18,000 337 457 64
2017-10-19 09:41:06 GMT 42.18787 1.34614 17,975 337 453 0
2017-10-19 09:41:06 GMT 42.18866 1.34570 18,000 337 453 0
2017-10-19 09:41:03 GMT 42.18191 1.34957 17,975 337 453 0
2017-10-19 09:40:56 GMT 42.16887 1.35719 17,975 337 451 0
2017-10-19 09:40:53 GMT 42.16213 1.36115 17,975 337 451 0
2017-10-19 09:40:46 GMT 42.14872 1.36901 17,975 337 451 0
2017-10-19 09:40:46 GMT 42.14872 1.36901 17,975 337 451 0
2017-10-19 09:40:36 GMT 42.12973 1.38010 17,975 337 453 -64
2017-10-19 09:40:34 GMT 42.12588 1.38228 17,975 337 453 -64
2017-10-19 09:40:28 GMT 42.11394 1.38927 17,975 337 456 0
2017-10-19 09:40:25 GMT 42.10849 1.39246 18,000 337 458 -64
2017-10-19 09:40:13 GMT 42.08616 1.40561 18,000 337 461 0
2017-10-19 09:40:05 GMT 42.06968 1.41526 18,000 337 462 0
2017-10-19 09:40:03 GMT 42.06614 1.41736 18,000 337 463 0
2017-10-19 09:39:53 GMT 42.04710 1.42847 18,000 337 462 0
2017-10-19 09:39:44 GMT 42.02964 1.43870 18,000 337 462 0
2017-10-19 09:39:37 GMT 42.01232 1.44879 18,000 337 462 0
2017-10-19 09:39:33 GMT 42.00664 1.45207 18,000 337 462 0
2017-10-19 09:39:20 GMT 41.98114 1.46692 18,000 337 462 0
2017-10-19 09:39:13 GMT 41.96759 1.47479 18,000 337 462 0
2017-10-19 09:38:49 GMT 41.92039 1.50244 18,000 337 462 0
2017-10-19 09:38:42 GMT 41.90506 1.51137 18,000 337 463 64
2017-10-19 09:38:33 GMT 41.88895 1.52079 18,000 337 463 0
2017-10-19 09:38:23 GMT 41.86913 1.53227 18,000 337 462 0
2017-10-19 09:38:12 GMT 41.84935 1.54383 17,975 337 461 0
2017-10-19 09:38:02 GMT 41.82935 1.55544 17,975 337 461 0
2017-10-19 09:37:53 GMT 41.81016 1.56661 17,975 337 462 0
2017-10-19 09:37:42 GMT 41.78897 1.57885 17,975 337 462 0
2017-10-19 09:37:34 GMT 41.77184 1.58874 17,975 337 462 256
2017-10-19 09:37:32 GMT 41.76970 1.58996 17,975 337 462 320
2017-10-19 09:37:21 GMT 41.74892 1.60194 17,825 337 457 1664
2017-10-19 09:37:11 GMT 41.72951 1.61318 17,550 337 454 1728
2017-10-19 09:37:01 GMT 41.71024 1.62435 17,250 337 451 1856
2017-10-19 09:36:51 GMT 41.68981 1.63626 16,925 337 448 2048
2017-10-19 09:36:41 GMT 41.67137 1.64689 16,575 337 446 2368
2017-10-19 09:36:30 GMT 41.65113 1.65862 16,150 337 444 2048
2017-10-19 09:36:21 GMT 41.63195 1.66973 15,825 337 440 1792
2017-10-19 09:36:21 GMT 41.63287 1.66917 15,850 337 441 1792
2017-10-19 09:36:09 GMT 41.61142 1.68161 15,500 337 436 2112
2017-10-19 09:36:03 GMT 41.60029 1.68800 15,275 337 434 2112
2017-10-19 09:35:59 GMT 41.59219 1.69272 15,125 337 433 2048
2017-10-19 09:35:52 GMT 41.58046 1.69950 14,925 337 430 1920
2017-10-19 09:35:48 GMT 41.57332 1.70357 14,800 337 428 1920
2017-10-19 09:35:42 GMT 41.56201 1.71000 14,600 337 425 2176
2017-10-19 09:35:40 GMT 41.55751 1.71259 14,525 337 425 2304
2017-10-19 09:35:38 GMT 41.55388 1.71470 14,450 337 424 2368
2017-10-19 09:35:31 GMT 41.54196 1.72153 14,175 337 423 2368
2017-10-19 09:35:29 GMT 41.53889 1.72323 14,125 337 422 2368
2017-10-19 09:35:27 GMT 41.53390 1.72616 14,000 337 422 2304
2017-10-19 09:35:22 GMT 41.52474 1.73137 13,825 337 419 2176
2017-10-19 09:35:19 GMT 41.51921 1.73453 13,700 337 418 2240
2017-10-19 09:35:16 GMT 41.51454 1.73715 13,600 337 418 2304
2017-10-19 09:35:09 GMT 41.50230 1.74421 13,325 337 416 2624
2017-10-19 09:35:06 GMT 41.49683 1.74739 13,175 337 416 2560
2017-10-19 09:35:01 GMT 41.48799 1.75251 12,975 337 415 2368
2017-10-19 09:34:59 GMT 41.48378 1.75494 12,875 337 414 2304
2017-10-19 09:34:55 GMT 41.47673 1.75906 12,725 337 413 2176
2017-10-19 09:34:50 GMT 41.46973 1.76306 12,600 337 411 2176
2017-10-19 09:34:48 GMT 41.46603 1.76516 12,525 337 410 2176
2017-10-19 09:34:44 GMT 41.45956 1.76886 12,375 337 409 2176
2017-10-19 09:34:39 GMT 41.44932 1.77468 12,175 337 406 1856
2017-10-19 09:34:37 GMT 41.44760 1.77570 12,150 337 406 1792
2017-10-19 09:34:34 GMT 41.44099 1.77940 12,025 337 404 1472
2017-10-19 09:34:28 GMT 41.42986 1.78572 11,875 337 399 1088
2017-10-19 09:34:24 GMT 41.42186 1.79026 11,800 337 395 1024
2017-10-19 09:34:19 GMT 41.41566 1.79377 11,725 337 391 1088
2017-10-19 09:34:17 GMT 41.41232 1.79570 11,700 337 389 1152
2017-10-19 09:34:13 GMT 41.40541 1.79964 11,625 337 384 1152
2017-10-19 09:34:08 GMT 41.39737 1.80425 11,525 337 381 1216
2017-10-19 09:34:05 GMT 41.39350 1.80648 11,475 337 375 1024
2017-10-19 09:34:02 GMT 41.38801 1.80961 11,400 337 375 1024
2017-10-19 09:33:58 GMT 41.38098 1.81362 11,325 337 370 960
2017-10-19 09:33:56 GMT 41.37879 1.81487 11,300 337 369 960
2017-10-19 09:33:52 GMT 41.37080 1.81946 11,225 337 363 960
2017-10-19 09:33:48 GMT 41.36646 1.82196 11,200 337 360 960
2017-10-19 09:33:46 GMT 41.36264 1.82411 11,150 337 358 960
2017-10-19 09:33:40 GMT 41.35460 1.82874 11,075 337 351 896
2017-10-19 09:33:38 GMT 41.35082 1.83085 11,025 338 349 832
2017-10-19 09:33:36 GMT 41.34728 1.83284 11,000 337 345 832
2017-10-19 09:33:34 GMT 41.34518 1.83403 10,975 338 344 832
2017-10-19 09:33:30 GMT 41.33830 1.83789 10,925 337 339 960
2017-10-19 09:33:27 GMT 41.33482 1.83984 10,875 337 336 1088
2017-10-19 09:33:25 GMT 41.33052 1.84235 10,825 337 333 1216
2017-10-19 09:33:20 GMT 41.32391 1.84620 10,725 337 328 1088
2017-10-19 09:33:17 GMT 41.32056 1.84814 10,675 337 326 1024
2017-10-19 09:33:14 GMT 41.31624 1.85059 10,625 337 322 960
2017-10-19 09:33:09 GMT 41.30901 1.85475 10,550 337 316 960
2017-10-19 09:33:07 GMT 41.30631 1.85632 10,525 337 313 1088
2017-10-19 09:33:05 GMT 41.30296 1.85822 10,475 337 311 1344
2017-10-19 09:33:03 GMT 41.30219 1.85870 10,475 337 309 1472
2017-10-19 09:32:59 GMT 41.29459 1.86310 10,300 337 306 2496
2017-10-19 09:32:56 GMT 41.29216 1.86450 10,250 337 305 2560
2017-10-19 09:32:53 GMT 41.28836 1.86676 10,125 336 305 2624
2017-10-19 09:32:48 GMT 41.28150 1.87086 9,875 336 304 2688
2017-10-19 09:32:45 GMT 41.27903 1.87236 9,800 336 304 2752
2017-10-19 09:32:43 GMT 41.27508 1.87470 9,675 336 304 2816
2017-10-19 09:32:38 GMT 41.26805 1.87897 9,400 336 304 2688
2017-10-19 09:32:35 GMT 41.26497 1.88078 9,300 337 303 2496
2017-10-19 09:32:33 GMT 41.26288 1.88197 9,225 337 304 2176
2017-10-19 09:32:30 GMT 41.25888 1.88434 9,100 337 303 1728
2017-10-19 09:32:27 GMT 41.25441 1.88690 9,000 337 299 1600
2017-10-19 09:32:25 GMT 41.25197 1.88831 8,950 336 298 1600
2017-10-19 09:32:22 GMT 41.24822 1.89056 8,875 336 295 1728
2017-10-19 09:32:15 GMT 41.23883 1.89636 8,650 335 290 2048
2017-10-19 09:32:12 GMT 41.23686 1.89758 8,600 334 289 2240
2017-10-19 09:32:04 GMT 41.22656 1.90418 8,250 335 285 3008
2017-10-19 09:32:02 GMT 41.22475 1.90532 8,175 335 285 3264
2017-10-19 09:31:56 GMT 41.21668 1.91052 7,800 335 287 3520
2017-10-19 09:31:54 GMT 41.21372 1.91231 7,650 335 288 3456
2017-10-19 09:31:52 GMT 41.21251 1.91312 7,600 335 288 3328
2017-10-19 09:31:45 GMT 41.20299 1.91913 7,175 333 288 2880
2017-10-19 09:31:42 GMT 41.19992 1.92114 7,050 329 287 2560
2017-10-19 09:31:40 GMT 41.19822 1.92242 6,975 328 287 2688
2017-10-19 09:31:34 GMT 41.19138 1.92885 6,700 318 285 2816
2017-10-19 09:31:31 GMT 41.18884 1.93189 6,575 313 284 2560
2017-10-19 09:31:28 GMT 41.18593 1.93590 6,425 312 284 2496
2017-10-19 09:31:24 GMT 41.18221 1.94269 6,250 300 279 2176
2017-10-19 09:31:22 GMT 41.18088 1.94537 6,200 297 277 2240
2017-10-19 09:31:19 GMT 41.17950 1.94889 6,100 292 275 2304
2017-10-19 09:31:13 GMT 41.17639 1.96014 5,850 278 267 1984
2017-10-19 09:31:11 GMT 41.17607 1.96185 5,825 280 268 1984
2017-10-19 09:31:07 GMT 41.17520 1.96832 5,700 274 264 2240
2017-10-19 09:31:02 GMT 41.17490 1.97642 5,525 265 259 2368
2017-10-19 09:31:00 GMT 41.17497 1.97876 5,475 264 258 2432
2017-10-19 09:30:58 GMT 41.17536 1.98347 5,350 257 255 2432
2017-10-19 09:30:52 GMT 41.17722 1.99310 5,125 246 250 2432
2017-10-19 09:30:50 GMT 41.17764 1.99458 5,075 246 250 2432
2017-10-19 09:30:41 GMT 41.18280 2.00659 4,700 228 244 2624
2017-10-19 09:30:38 GMT 41.18490 2.00981 4,575 225 243 2368
2017-10-19 09:30:30 GMT 41.19124 2.01687 4,350 212 231 448
2017-10-19 09:30:28 GMT 41.19352 2.01886 4,350 212 229 512
2017-10-19 09:30:19 GMT 41.20129 2.02490 4,250 211 213 1344
2017-10-19 09:30:09 GMT 41.20995 2.03180 4,025 212 203 576
2017-10-19 09:30:06 GMT 41.21228 2.03369 4,000 213 200 576
2017-10-19 09:29:58 GMT 41.21796 2.03859 3,900 215 186 1408
2017-10-19 09:29:56 GMT 41.21982 2.04040 3,825 215 186 1536
2017-10-19 09:29:50 GMT 41.22466 2.04502 3,600 219 184 2496
2017-10-19 09:29:48 GMT 41.22522 2.04558 3,575 219 185 2496
2017-10-19 09:29:46 GMT 41.22670 2.04706 3,475 220 185 2368
2017-10-19 09:29:38 GMT 41.23196 2.05298 3,175 222 187 1984
2017-10-19 09:29:29 GMT 41.23811 2.05962 2,875 208 182 1728
2017-10-19 09:29:27 GMT 41.23923 2.06044 2,850 206 182 1792
2017-10-19 09:29:17 GMT 41.24747 2.06312 2,575 173 175 1792
2017-10-19 09:29:15 GMT 41.24929 2.06287 2,525 167 173 2112
2017-10-19 09:29:07 GMT 41.25525 2.06100 2,250 167 174 2880
2017-10-19 09:29:06 GMT 41.25563 2.06091 2,225 168 174 3072
2017-10-19 09:29:02 GMT 41.25943 2.05987 1,975 175 180 3840
2017-10-19 09:28:58 GMT 41.26283 2.05944 1,725 182 184 3584
2017-10-19 09:28:56 GMT 41.26442 2.05945 1,600 187 185 3200
2017-10-19 09:28:54 GMT 41.26572 2.05950 1,500 189 186 2944
2017-10-19 09:28:46 GMT 41.27359 2.06262 1,075 215 181 1920
2017-10-19 09:28:45 GMT 41.27321 2.06238 1,100 210 182 2048
2017-10-19 09:28:37 GMT 41.27871 2.06768 775 230 174 2560
2017-10-19 09:28:35 GMT 41.27978 2.06930 700 241 171 2752
2017-10-19 09:28:25 GMT 41.28378 2.07873 200 246 174 1728
2017-10-19 09:28:23 GMT 41.28429 2.08029 150 246 174 1344
2017-10-19 09:28:15 GMT 41.28686 2.08764 0 244 155 0
2017-10-19 09:28:13 GMT 41.28764 2.08989 0 244 145 0
2017-10-19 09:28:05 GMT 41.28970 2.09592 0 244 110 0
2017-10-19 09:27:35 GMT 41.29224 2.10318 0 129 5 0
2017-10-19 09:27:33 GMT 41.29229 2.10323 0 129 5 0
2017-10-19 09:27:23 GMT 41.29245 2.10319 0 129 5 0
2017-10-19 09:27:17 GMT 41.29256 2.10315 0 129 6 0
2017-10-19 09:27:14 GMT 41.29263 2.10312 0 129 6 0
2017-10-19 09:27:12 GMT 41.29270 2.10307 0 129 7 0
2017-10-19 09:27:04 GMT 41.29288 2.10297 0 129 7 0
2017-10-19 09:27:02 GMT 41.29292 2.10295 0 129 7 0
2017-10-19 09:26:57 GMT 41.29304 2.10288 0 129 6 0
2017-10-19 09:26:53 GMT 41.29314 2.10281 0 129 5 0
2017-10-19 09:26:42 GMT 41.29328 2.10271 0 129 2 0
2017-10-19 09:26:40 GMT 41.29329 2.10271 0 129 0 0
2017-10-19 09:26:22 GMT 41.29329 2.10270 0 129 0 0
2017-10-19 09:26:19 GMT 41.29330 2.10270 0 129 0 0
2017-10-19 09:26:11 GMT 41.29337 2.10265 0 129 7 0
2017-10-19 09:26:08 GMT 41.29344 2.10260 0 129 8 0
2017-10-19 09:26:01 GMT 41.29361 2.10239 0 118 8 0
2017-10-19 09:25:55 GMT 41.29369 2.10216 0 64 7 0
2017-10-19 09:25:50 GMT 41.29370 2.10199 0 64 6 0
2017-10-19 09:25:47 GMT 41.29369 2.10190 0 64 6 0
2017-10-19 09:25:39 GMT 41.29367 2.10170 0 64 4 0
2017-10-19 09:25:17 GMT 41.29360 2.10142 0 64 0 0
2017-10-19 09:25:17 GMT 41.29360 2.10142 0 64 0 0
2017-10-19 09:25:07 GMT 41.29359 2.10141 0 64 0 0
2017-10-19 09:25:07 GMT 41.29359 2.10141 0 64 0 0
2017-10-19 09:24:57 GMT 41.29359 2.10140 0 64 0 0
2017-10-19 09:24:52 GMT 41.29359 2.10140 0 64 0 0
2017-10-19 09:24:47 GMT 41.29359 2.10140 0 64 0 0
2017-10-19 09:24:37 GMT 41.29359 2.10140 0 64 0 0
2017-10-19 09:24:27 GMT 41.29359 2.10140 0 64 0 0
2017-10-19 09:24:27 GMT 41.29359 2.10140 0 64 0 0
2017-10-19 09:23:53 GMT 41.29359 2.10140 0 64 0 0
2017-10-19 09:23:32 GMT 41.29359 2.10140 0 64 0 0
2017-10-19 09:23:32 GMT 41.29359 2.10140 0 64 0 0
2017-10-19 09:23:26 GMT 41.29359 2.10140 0 64 0 0
2017-10-19 09:23:15 GMT 41.29359 2.10140 0 64 0 0
2017-10-19 09:23:15 GMT 41.29359 2.10140 0 64 0 0
2017-10-19 09:23:11 GMT 41.29359 2.10140 0 64 0 0
2017-10-19 09:23:05 GMT 41.29358 2.10137 0 64 4 0
2017-10-19 09:23:04 GMT 41.29358 2.10137 0 64 4 0
2017-10-19 09:22:58 GMT 41.29352 2.10123 0 64 7 0
2017-10-19 09:22:55 GMT 41.29349 2.10110 0 64 8 0
2017-10-19 09:22:55 GMT 41.29349 2.10110 0 64 8 0
2017-10-19 09:22:49 GMT 41.29342 2.10092 0 64 8 0
2017-10-19 09:22:44 GMT 41.29335 2.10071 0 64 9 0
2017-10-19 09:22:44 GMT 41.29335 2.10071 0 64 9 0
2017-10-19 09:22:34 GMT 41.29319 2.10024 0 64 9 0
2017-10-19 09:22:27 GMT 41.29308 2.09993 0 64 9 0
2017-10-19 09:22:24 GMT 41.29302 2.09976 0 59 9 0
2017-10-19 09:22:16 GMT 41.29288 2.09948 0 53 8 0
2017-10-19 09:22:13 GMT 41.29281 2.09936 0 53 8 0
2017-10-19 09:22:07 GMT 41.29270 2.09914 0 64 8 0
2017-10-19 09:22:03 GMT 41.29264 2.09900 0 64 8 0
2017-10-19 09:22:00 GMT 41.29261 2.09891 0 64 8 0
2017-10-19 09:21:57 GMT 41.29254 2.09873 0 64 8 0
2017-10-19 09:21:53 GMT 41.29249 2.09857 0 67 8 0
2017-10-19 09:21:46 GMT 41.29241 2.09834 0 64 7 0
2017-10-19 09:21:42 GMT 41.29236 2.09819 0 64 7 0
2017-10-19 09:21:42 GMT 41.29236 2.09819 0 64 7 0
2017-10-19 09:21:36 GMT 41.29230 2.09799 0 64 7 0
2017-10-19 09:21:31 GMT 41.29224 2.09784 0 64 6 0
2017-10-19 09:21:31 GMT 41.29224 2.09784 0 64 6 0
2017-10-19 09:21:25 GMT 41.29218 2.09766 0 64 6 0
2017-10-19 09:21:21 GMT 41.29215 2.09756 0 64 5 0
2017-10-19 09:21:21 GMT 41.29215 2.09756 0 64 5 0
2017-10-19 09:21:15 GMT 41.29210 2.09742 0 64 5 0
2017-10-19 09:21:11 GMT 41.29207 2.09730 0 64 7 0
2017-10-19 09:21:10 GMT 41.29207 2.09730 0 64 7 0
2017-10-19 09:21:05 GMT 41.29199 2.09711 0 64 7 0
2017-10-19 09:21:01 GMT 41.29193 2.09692 0 64 7 0
2017-10-19 09:21:01 GMT 41.29194 2.09695 0 64 7 0
2017-10-19 09:20:53 GMT 41.29186 2.09671 0 64 6 0
2017-10-19 09:20:50 GMT 41.29182 2.09661 0 64 6 0
2017-10-19 09:20:44 GMT 41.29177 2.09645 0 64 5 0
2017-10-19 09:20:40 GMT 41.29172 2.09634 0 64 7 0
2017-10-19 09:20:33 GMT 41.29165 2.09608 0 64 9 0
2017-10-19 09:20:30 GMT 41.29159 2.09593 0 64 11 0
2017-10-19 09:20:29 GMT 41.29159 2.09593 0 64 11 0
2017-10-19 09:20:19 GMT 41.29135 2.09523 0 64 16 0
2017-10-19 09:20:08 GMT 41.29104 2.09433 0 67 15 0
2017-10-19 09:19:59 GMT 41.29077 2.09354 0 64 15 0
2017-10-19 09:19:57 GMT 41.29075 2.09346 0 64 15 0
2017-10-19 09:19:48 GMT 41.29050 2.09274 0 64 14 0
2017-10-19 09:19:41 GMT 41.29034 2.09227 0 64 13 0
2017-10-19 09:19:38 GMT 41.29025 2.09204 0 64 13 0
2017-10-19 09:19:30 GMT 41.29010 2.09155 0 64 13 0
2017-10-19 09:19:27 GMT 41.29002 2.09132 0 64 12 0
2017-10-19 09:19:17 GMT 41.28981 2.09071 0 64 11 0
2017-10-19 09:19:06 GMT 41.28960 2.09010 0 67 11 0
2017-10-19 09:19:00 GMT 41.28950 2.08971 0 90 10 0
2017-10-19 09:18:56 GMT 41.28949 2.08954 0 106 11 0
2017-10-19 09:18:45 GMT 41.28982 2.08904 0 154 16 0
2017-10-19 09:18:43 GMT 41.28993 2.08897 0 154 18 0
2017-10-19 09:18:36 GMT 41.29044 2.08867 0 154 21 0
2017-10-19 09:18:32 GMT 41.29076 2.08848 0 154 20 0
2017-10-19 09:18:26 GMT 41.29133 2.08812 0 157 20 0
2017-10-19 09:18:18 GMT 41.29189 2.08779 0 154 19 0
2017-10-19 09:18:15 GMT 41.29208 2.08768 0 154 19 0
2017-10-19 09:18:04 GMT 41.29279 2.08725 0 154 16 0
2017-10-19 09:17:55 GMT 41.29342 2.08688 0 154 17 0
2017-10-19 09:17:55 GMT 41.29344 2.08687 0 154 17 0
2017-10-19 09:17:50 GMT 41.29372 2.08670 0 154 17 0
2017-10-19 09:17:44 GMT 41.29409 2.08646 0 154 17 0
2017-10-19 09:17:44 GMT 41.29409 2.08646 0 154 17 0
2017-10-19 09:17:42 GMT 41.29429 2.08635 0 154 17 0
2017-10-19 09:17:33 GMT 41.29480 2.08603 0 154 16 0
2017-10-19 09:17:30 GMT 41.29499 2.08592 0 154 15 0
2017-10-19 09:17:24 GMT 41.29541 2.08566 0 157 14 0
2017-10-19 09:17:19 GMT 41.29563 2.08555 0 157 13 0
2017-10-19 09:17:13 GMT 41.29595 2.08537 0 146 12 0
2017-10-19 09:17:10 GMT 41.29611 2.08524 0 126 12 0
2017-10-19 09:17:02 GMT 41.29626 2.08483 0 81 13 0
2017-10-19 09:16:58 GMT 41.29622 2.08452 0 64 13 0
2017-10-19 09:16:52 GMT 41.29606 2.08405 0 64 17 0
2017-10-19 09:16:49 GMT 41.29596 2.08374 0 67 17 0
2017-10-19 09:16:41 GMT 41.29575 2.08308 0 78 18 0
2017-10-19 09:16:37 GMT 41.29570 2.08270 0 81 18 0
2017-10-19 09:16:32 GMT 41.29564 2.08217 0 73 18 0
2017-10-19 09:16:30 GMT 41.29563 2.08206 0 70 18 0
2017-10-19 09:16:26 GMT 41.29550 2.08162 0 67 17 0
2017-10-19 09:16:22 GMT 41.29536 2.08121 0 64 17 0
2017-10-19 09:16:20 GMT 41.29532 2.08107 0 64 17 0
2017-10-19 09:16:17 GMT 41.29523 2.08081 0 64 17 0
2017-10-19 09:16:05 GMT 41.29490 2.07988 0 67 16 0
2017-10-19 09:16:00 GMT 41.29472 2.07933 0 64 15 0
2017-10-19 09:15:59 GMT 41.29472 2.07933 0 64 15 0
2017-10-19 09:15:55 GMT 41.29462 2.07905 0 64 15 0
2017-10-19 09:15:47 GMT 41.29440 2.07838 0 67 14 0
2017-10-19 09:15:45 GMT 41.29434 2.07823 0 67 14 0
2017-10-19 09:15:39 GMT 41.29421 2.07781 0 64 14 0
2017-10-19 09:15:33 GMT 41.29405 2.07737 0 64 14 0
2017-10-19 09:15:24 GMT 41.29383 2.07675 0 64 13 0
2017-10-19 09:15:18 GMT 41.29371 2.07639 0 64 13 0
2017-10-19 09:15:13 GMT 41.29359 2.07605 0 67 12 0
2017-10-19 09:15:08 GMT 41.29349 2.07571 0 75 12 0
2017-10-19 09:15:03 GMT 41.29343 2.07539 0 73 11 0
2017-10-19 09:14:58 GMT 41.29336 2.07510 0 64 10 0
2017-10-19 09:14:53 GMT 41.29326 2.07483 0 67 6 0
2017-10-19 09:14:48 GMT 41.29323 2.07473 0 67 4 0
2017-10-19 09:14:37 GMT 41.29318 2.07460 0 67 1 0
2017-10-19 09:14:32 GMT 41.29317 2.07457 0 67 0 0
2017-10-19 09:14:27 GMT 41.29316 2.07456 0 67 5 0
2017-10-19 09:14:26 GMT 41.29315 2.07451 0 61 5 0
2017-10-19 09:14:20 GMT 41.29311 2.07439 0 67 9 0
2017-10-19 09:14:16 GMT 41.29304 2.07420 0 61 10 0
2017-10-19 09:14:16 GMT 41.29304 2.07417 0 61 10 0
2017-10-19 09:14:09 GMT 41.29285 2.07387 0 11 9 0
2017-10-19 09:14:07 GMT 41.29278 2.07384 0 5 9 0
2017-10-19 09:14:05 GMT 41.29270 2.07382 0 351 9 0
2017-10-19 09:13:57 GMT 41.29239 2.07382 0 30 8 0
2017-10-19 09:13:56 GMT 41.29238 2.07381 0 30 8 0
2017-10-19 09:13:46 GMT 41.29217 2.07345 0 64 11 0
2017-10-19 09:13:43 GMT 41.29210 2.07326 0 67 11 0
2017-10-19 09:13:38 GMT 41.29202 2.07301 0 64 11 0
2017-10-19 09:13:34 GMT 41.29193 2.07275 0 64 11 0
2017-10-19 09:13:32 GMT 41.29190 2.07269 0 64 11 0
2017-10-19 09:13:28 GMT 41.29181 2.07242 0 67 10 0
2017-10-19 09:13:21 GMT 41.29170 2.07210 0 0 6 0
2017-10-19 09:13:21 GMT 41.29171 2.07211 0 0 6 0
2017-10-19 09:13:17 GMT 41.29168 2.07200 0 0 5 0
2017-10-19 09:13:15 GMT 41.29165 2.07197 0 0 4 0
2017-10-19 09:13:13 GMT 41.29165 2.07192 0 0 4 0
2017-10-19 09:09:08 GMT 41.29165 2.07190 0 0 3 0
2017-10-19 09:09:04 GMT 41.29163 2.07194 0 0 3 0
2017-10-19 09:08:57 GMT 41.29161 2.07201 0 0 2 0
2017-10-19 09:08:55 GMT 41.29160 2.07204 0 0 2 0
2017-10-19 09:08:45 GMT 41.29155 2.07211 0 0 3 0
2017-10-19 09:08:36 GMT 41.29150 2.07219 0 0 3 0
2017-10-19 09:08:34 GMT 41.29147 2.07220 0 0 4 0
2017-10-19 09:08:25 GMT 41.29139 2.07228 0 0 3 0
2017-10-19 09:08:21 GMT 41.29135 2.07231 0 0 3 0
2017-10-19 09:08:15 GMT 41.29130 2.07234 0 0 3 0
2017-10-19 09:08:13 GMT 41.29126 2.07236 0 0 3 0
2017-10-19 09:08:06 GMT 41.29120 2.07237 0 0 3 0
2017-10-19 09:08:02 GMT 41.29115 2.07239 0 0 3 0
2017-10-19 09:07:51 GMT 41.29106 2.07245 0 0 3 0

Making use of Plane Finder data

You are free to use the raw flight data, aircraft information and images provided in this report for your own purposes provided the data is correctly attributed to Plane Finder. We ask that you please credit Plane Finder and link to planefinder.net in close proximity to the content.

Optionally one of the following logos (no smaller then 150x24px) can be used and must link to planefinder.net

Embedding the Plane Finder map

You are welcome to embed the Plane Finder playback map on your website to offer visitors a more interactive experience. We suggest using the following HTML code:

<iframe src="//planefinder.net/data/report/UA121-N653UA-7700-squawk-2017-10-19/map" width="800" height="600" seamless="seamless"></iframe>

Where our data comes from

Plane Finder has a global network of data feeds and antenna radars that receive data broadcast directly from aircraft. The primary technologies used are ADS-B and MLAT. We also show feeds from the FAA and a FLARM glider feed.

Click here to find out more about the Plane Finder network.

How we collect our data